Observation data for Tahoka on 07/03/2020      Previous  Date  Next       Current Mesonet Observations  Soil Data  Daily Summary Page  Observations in Plain Language
KTAS 030500Z 11005KT 27/18 A3006 RMK A01 T02660181  RH  060%=      5-min Rain = 0
KTAS 030501Z 12005KT 27/18 A3006 RMK A01 T02650181  RH  060%=      5-min Rain = 0
KTAS 030502Z 11005KT 26/18 A3006 RMK A01 T02640180  RH  060%=      5-min Rain = 0
KTAS 030503Z 11005KT 26/18 A3006 RMK A01 T02640181  RH  060%=      5-min Rain = 0
KTAS 030504Z 11005KT 26/18 A3006 RMK A01 T02640181  RH  060%=      5-min Rain = 0
KTAS 030505Z 12004KT 26/18 A3006 RMK A01 T02640180  RH  060%=      5-min Rain = 0
KTAS 030506Z 12005KT 26/18 A3006 RMK A01 T02640180  RH  060%=      5-min Rain = 0
KTAS 030507Z 12006KT 26/18 A3006 RMK A01 T02630180  RH  060%=      5-min Rain = 0
KTAS 030508Z 11005KT 26/18 A3006 RMK A01 T02630180  RH  060%=      5-min Rain = 0
KTAS 030509Z 11005KT 26/18 A3006 RMK A01 T02630180  RH  060%=      5-min Rain = 0
KTAS 030510Z 11005KT 26/18 A3006 RMK A01 T02630180  RH  061%=      5-min Rain = 0
KTAS 030511Z 11005KT 26/18 A3006 RMK A01 T02620180  RH  061%=      5-min Rain = 0
KTAS 030512Z 12006KT 26/18 A3006 RMK A01 T02610180  RH  061%=      5-min Rain = 0
KTAS 030513Z 12005KT 26/18 A3006 RMK A01 T02620179  RH  060%=      5-min Rain = 0
KTAS 030514Z 11005KT 26/18 A3006 RMK A01 T02610180  RH  061%=      5-min Rain = 0
KTAS 030515Z 11006KT 26/18 A3006 RMK A01 T02600179  RH  061%=      5-min Rain = 0
KTAS 030516Z 12006KT 26/18 A3006 RMK A01 T02600178  RH  060%=      5-min Rain = 0
KTAS 030517Z 12008KT 26/18 A3006 RMK A01 T02620177  RH  059%=      5-min Rain = 0
KTAS 030518Z 12008KT 26/18 A3006 RMK A01 T02640176  RH  058%=      5-min Rain = 0
KTAS 030519Z 12009KT 27/17 A3006 RMK A01 T02650174  RH  057%=      5-min Rain = 0
KTAS 030520Z 12007KT 27/17 A3006 RMK A01 T02660173  RH  057%=      5-min Rain = 0
KTAS 030521Z 12007KT 27/17 A3006 RMK A01 T02670173  RH  056%=      5-min Rain = 0
KTAS 030522Z 12008KT 27/17 A3006 RMK A01 T02680174  RH  056%=      5-min Rain = 0
KTAS 030523Z 12007KT 27/17 A3006 RMK A01 T02680174  RH  056%=      5-min Rain = 0
KTAS 030524Z 12007KT 27/17 A3006 RMK A01 T02680174  RH  056%=      5-min Rain = 0
KTAS 030525Z 12007KT 27/17 A3006 RMK A01 T02670173  RH  056%=      5-min Rain = 0
KTAS 030526Z 12008KT 27/17 A3006 RMK A01 T02670173  RH  056%=      5-min Rain = 0
KTAS 030527Z 12007KT 27/17 A3006 RMK A01 T02680173  RH  056%=      5-min Rain = 0
KTAS 030528Z 12008KT 27/17 A3006 RMK A01 T02680173  RH  056%=      5-min Rain = 0
KTAS 030529Z 12008KT 27/17 A3006 RMK A01 T02670172  RH  056%=      5-min Rain = 0
KTAS 030530Z 12009KT 27/17 A3006 RMK A01 T02680170  RH  055%=      5-min Rain = 0
KTAS 030531Z 12009KT 27/17 A3006 RMK A01 T02680170  RH  055%=      5-min Rain = 0
KTAS 030532Z 12008KT 27/17 A3006 RMK A01 T02690170  RH  055%=      5-min Rain = 0
KTAS 030533Z 13008KT 27/17 A3006 RMK A01 T02690170  RH  055%=      5-min Rain = 0
KTAS 030534Z 12008KT 27/17 A3006 RMK A01 T02680169  RH  055%=      5-min Rain = 0
KTAS 030535Z 13008KT 27/17 A3006 RMK A01 T02680169  RH  055%=      5-min Rain = 0
KTAS 030536Z 13007KT 27/17 A3006 RMK A01 T02670169  RH  055%=      5-min Rain = 0
KTAS 030537Z 13008KT 27/17 A3006 RMK A01 T02660168  RH  055%=      5-min Rain = 0
KTAS 030538Z 13008KT 27/17 A3006 RMK A01 T02660168  RH  055%=      5-min Rain = 0
KTAS 030539Z 13007KT 27/17 A3006 RMK A01 T02660168  RH  055%=      5-min Rain = 0
KTAS 030540Z 13008KT 27/17 A3006 RMK A01 T02660168  RH  055%=      5-min Rain = 0
KTAS 030541Z 13008KT 27/17 A3006 RMK A01 T02660168  RH  055%=      5-min Rain = 0
KTAS 030542Z 13008KT 27/17 A3006 RMK A01 T02650168  RH  055%=      5-min Rain = 0
KTAS 030543Z 13007KT 27/17 A3006 RMK A01 T02650167  RH  055%=      5-min Rain = 0
KTAS 030544Z 13007KT 27/17 A3006 RMK A01 T02650167  RH  055%=      5-min Rain = 0
KTAS 030545Z 13007KT 26/17 A3006 RMK A01 T02640166  RH  055%=      5-min Rain = 0
KTAS 030546Z 13007KT 26/17 A3006 RMK A01 T02640166  RH  055%=      5-min Rain = 0
KTAS 030547Z 13006KT 26/17 A3006 RMK A01 T02630166  RH  055%=      5-min Rain = 0
KTAS 030548Z 13006KT 26/17 A3006 RMK A01 T02620166  RH  055%=      5-min Rain = 0
KTAS 030549Z 13006KT 26/17 A3006 RMK A01 T02610166  RH  056%=      5-min Rain = 0
KTAS 030550Z 13007KT 26/17 A3006 RMK A01 T02610165  RH  056%=      5-min Rain = 0
KTAS 030551Z 13006KT 26/17 A3006 RMK A01 T02600165  RH  056%=      5-min Rain = 0
KTAS 030552Z 13007KT 26/17 A3006 RMK A01 T02600165  RH  056%=      5-min Rain = 0
KTAS 030553Z 13006KT 26/17 A3006 RMK A01 T02590165  RH  056%=      5-min Rain = 0
KTAS 030554Z 13007KT 26/17 A3006 RMK A01 T02590165  RH  056%=      5-min Rain = 0
KTAS 030555Z 13007KT 26/17 A3006 RMK A01 T02590165  RH  056%=      5-min Rain = 0
KTAS 030556Z 14007KT 26/17 A3006 RMK A01 T02590165  RH  056%=      5-min Rain = 0
KTAS 030557Z 13007KT 26/16 A3006 RMK A01 T02590164  RH  056%=      5-min Rain = 0
KTAS 030558Z 13007KT 26/16 A3006 RMK A01 T02590164  RH  056%=      5-min Rain = 0
KTAS 030559Z 14006KT 26/16 A3006 RMK A01 T02590164  RH  056%=      5-min Rain = 0
KTAS 030600Z 13006KT 26/16 A3006 RMK A01 T02590163  RH  056%=      5-min Rain = 0
KTAS 030601Z 14006KT 26/16 A3006 RMK A01 T02590164  RH  056%=      5-min Rain = 0
KTAS 030602Z 14006KT 26/16 A3006 RMK A01 T02580164  RH  056%=      5-min Rain = 0
KTAS 030603Z 14006KT 26/16 A3006 RMK A01 T02570164  RH  056%=      5-min Rain = 0
KTAS 030604Z 14006KT 26/16 A3006 RMK A01 T02570163  RH  056%=      5-min Rain = 0
KTAS 030605Z 14006KT 26/16 A3006 RMK A01 T02570162  RH  056%=      5-min Rain = 0
KTAS 030606Z 14006KT 26/16 A3006 RMK A01 T02570162  RH  055%=      5-min Rain = 0
KTAS 030607Z 14006KT 26/16 A3006 RMK A01 T02580161  RH  055%=      5-min Rain = 0
KTAS 030608Z 14006KT 26/16 A3006 RMK A01 T02590160  RH  055%=      5-min Rain = 0
KTAS 030609Z 14007KT 26/16 A3006 RMK A01 T02590159  RH  054%=      5-min Rain = 0
KTAS 030610Z 14006KT 26/16 A3006 RMK A01 T02590160  RH  054%=      5-min Rain = 0
KTAS 030611Z 14006KT 26/16 A3006 RMK A01 T02590160  RH  054%=      5-min Rain = 0
KTAS 030612Z 14006KT 26/16 A3006 RMK A01 T02590159  RH  054%=      5-min Rain = 0
KTAS 030613Z 14007KT 26/16 A3006 RMK A01 T02590158  RH  054%=      5-min Rain = 0
KTAS 030614Z 13006KT 26/16 A3006 RMK A01 T02590159  RH  054%=      5-min Rain = 0
KTAS 030615Z 13006KT 26/16 A3006 RMK A01 T02590159  RH  054%=      5-min Rain = 0
KTAS 030616Z 13006KT 26/16 A3006 RMK A01 T02580160  RH  055%=      5-min Rain = 0
KTAS 030617Z 13006KT 26/16 A3006 RMK A01 T02570160  RH  055%=      5-min Rain = 0
KTAS 030618Z 13006KT 26/16 A3006 RMK A01 T02560160  RH  055%=      5-min Rain = 0
KTAS 030619Z 13007KT 26/16 A3006 RMK A01 T02560160  RH  055%=      5-min Rain = 0
KTAS 030620Z 12007KT 26/16 A3006 RMK A01 T02560159  RH  055%=      5-min Rain = 0
KTAS 030621Z 12007KT 26/16 A3006 RMK A01 T02550159  RH  055%=      5-min Rain = 0
KTAS 030622Z 12006KT 26/16 A3006 RMK A01 T02550159  RH  055%=      5-min Rain = 0
KTAS 030623Z 12006KT 26/16 A3006 RMK A01 T02550159  RH  055%=      5-min Rain = 0
KTAS 030624Z 12006KT 26/16 A3006 RMK A01 T02550158  RH  055%=      5-min Rain = 0
KTAS 030625Z 12006KT 26/16 A3006 RMK A01 T02550159  RH  055%=      5-min Rain = 0
KTAS 030626Z 12005KT 26/16 A3006 RMK A01 T02550159  RH  055%=      5-min Rain = 0
KTAS 030627Z 13005KT 25/16 A3006 RMK A01 T02540159  RH  056%=      5-min Rain = 0
KTAS 030628Z 12005KT 25/16 A3006 RMK A01 T02540159  RH  056%=      5-min Rain = 0
KTAS 030629Z 12006KT 25/16 A3006 RMK A01 T02530159  RH  056%=      5-min Rain = 0
KTAS 030630Z 13006KT 25/16 A3006 RMK A01 T02530159  RH  056%=      5-min Rain = 0
KTAS 030631Z 13005KT 25/16 A3006 RMK A01 T02530159  RH  056%=      5-min Rain = 0
KTAS 030632Z 12005KT 25/16 A3006 RMK A01 T02530159  RH  056%=      5-min Rain = 0
KTAS 030633Z 12005KT 25/16 A3006 RMK A01 T02520159  RH  056%=      5-min Rain = 0
KTAS 030634Z 12004KT 25/16 A3006 RMK A01 T02520160  RH  056%=      5-min Rain = 0
KTAS 030635Z 13006KT 25/16 A3006 RMK A01 T02510159  RH  057%=      5-min Rain = 0
KTAS 030636Z 12006KT 25/16 A3006 RMK A01 T02510159  RH  057%=      5-min Rain = 0
KTAS 030637Z 13006KT 25/16 A3006 RMK A01 T02510159  RH  056%=      5-min Rain = 0
KTAS 030638Z 13006KT 25/16 A3006 RMK A01 T02510159  RH  056%=      5-min Rain = 0
KTAS 030639Z 12006KT 25/16 A3006 RMK A01 T02510159  RH  057%=      5-min Rain = 0
KTAS 030640Z 13006KT 25/16 A3006 RMK A01 T02510159  RH  057%=      5-min Rain = 0
KTAS 030641Z 13007KT 25/16 A3006 RMK A01 T02510160  RH  057%=      5-min Rain = 0
KTAS 030642Z 13006KT 25/16 A3006 RMK A01 T02510160  RH  057%=      5-min Rain = 0
KTAS 030643Z 13006KT 25/16 A3006 RMK A01 T02500159  RH  057%=      5-min Rain = 0
KTAS 030644Z 14005KT 25/16 A3006 RMK A01 T02500159  RH  057%=      5-min Rain = 0
KTAS 030645Z 14006KT 25/16 A3006 RMK A01 T02490159  RH  057%=      5-min Rain = 0
KTAS 030646Z 14007KT 25/16 A3006 RMK A01 T02500159  RH  057%=      5-min Rain = 0
KTAS 030647Z 13006KT 25/16 A3006 RMK A01 T02500159  RH  057%=      5-min Rain = 0
KTAS 030648Z 14006KT 25/16 A3006 RMK A01 T02500159  RH  057%=      5-min Rain = 0
KTAS 030649Z 14005KT 25/16 A3006 RMK A01 T02500159  RH  057%=      5-min Rain = 0
KTAS 030650Z 14005KT 25/16 A3005 RMK A01 T02500159  RH  057%=      5-min Rain = 0
KTAS 030651Z 14005KT 25/16 A3005 RMK A01 T02500159  RH  057%=      5-min Rain = 0
KTAS 030652Z 14005KT 25/16 A3005 RMK A01 T02500159  RH  057%=      5-min Rain = 0
KTAS 030653Z 14006KT 25/16 A3005 RMK A01 T02490159  RH  057%=      5-min Rain = 0
KTAS 030654Z 14005KT 25/16 A3005 RMK A01 T02490159  RH  057%=      5-min Rain = 0
KTAS 030655Z 14006KT 25/16 A3005 RMK A01 T02490158  RH  057%=      5-min Rain = 0
KTAS 030656Z 14005KT 25/16 A3005 RMK A01 T02490158  RH  057%=      5-min Rain = 0
KTAS 030657Z 14005KT 25/16 A3005 RMK A01 T02480159  RH  057%=      5-min Rain = 0
KTAS 030658Z 14006KT 25/16 A3005 RMK A01 T02480158  RH  057%=      5-min Rain = 0
KTAS 030659Z 13005KT 25/16 A3005 RMK A01 T02470158  RH  058%=      5-min Rain = 0
KTAS 030700Z 14006KT 25/16 A3005 RMK A01 T02470158  RH  058%=      5-min Rain = 0
KTAS 030701Z 14006KT 25/16 A3005 RMK A01 T02470158  RH  058%=      5-min Rain = 0
KTAS 030702Z 14006KT 25/16 A3005 RMK A01 T02470158  RH  058%=      5-min Rain = 0
KTAS 030703Z 14005KT 25/16 A3005 RMK A01 T02470158  RH  058%=      5-min Rain = 0
KTAS 030704Z 14006KT 25/16 A3005 RMK A01 T02470158  RH  058%=      5-min Rain = 0
KTAS 030705Z 14006KT 25/16 A3005 RMK A01 T02470158  RH  058%=      5-min Rain = 0
KTAS 030706Z 14005KT 25/16 A3005 RMK A01 T02470157  RH  057%=      5-min Rain = 0
KTAS 030707Z 14005KT 25/16 A3005 RMK A01 T02470157  RH  057%=      5-min Rain = 0
KTAS 030708Z 14005KT 25/16 A3005 RMK A01 T02470157  RH  057%=      5-min Rain = 0
KTAS 030709Z 14005KT 25/16 A3005 RMK A01 T02470157  RH  057%=      5-min Rain = 0
KTAS 030710Z 14005KT 25/16 A3005 RMK A01 T02470157  RH  057%=      5-min Rain = 0
KTAS 030711Z 14005KT 25/16 A3005 RMK A01 T02470156  RH  057%=      5-min Rain = 0
KTAS 030712Z 15004KT 25/16 A3005 RMK A01 T02470157  RH  057%=      5-min Rain = 0
KTAS 030713Z 14005KT 25/16 A3005 RMK A01 T02460156  RH  057%=      5-min Rain = 0
KTAS 030714Z 15005KT 25/16 A3005 RMK A01 T02460156  RH  057%=      5-min Rain = 0
KTAS 030715Z 15005KT 25/16 A3005 RMK A01 T02470156  RH  057%=      5-min Rain = 0
KTAS 030716Z 16006KT 25/16 A3005 RMK A01 T02470155  RH  057%=      5-min Rain = 0
KTAS 030717Z 16007KT 25/15 A3005 RMK A01 T02470153  RH  056%=      5-min Rain = 0
KTAS 030718Z 16007KT 25/16 A3005 RMK A01 T02470155  RH  056%=      5-min Rain = 0
KTAS 030719Z 15007KT 25/16 A3005 RMK A01 T02470156  RH  057%=      5-min Rain = 0
KTAS 030720Z 15008KT 25/15 A3004 RMK A01 T02470154  RH  056%=      5-min Rain = 0
KTAS 030721Z 15007KT 25/15 A3004 RMK A01 T02480153  RH  056%=      5-min Rain = 0
KTAS 030722Z 16007KT 25/15 A3004 RMK A01 T02480154  RH  056%=      5-min Rain = 0
KTAS 030723Z 16007KT 25/15 A3004 RMK A01 T02480154  RH  056%=      5-min Rain = 0
KTAS 030724Z 16008KT 25/15 A3004 RMK A01 T02480154  RH  056%=      5-min Rain = 0
KTAS 030725Z 16008KT 25/15 A3004 RMK A01 T02470153  RH  056%=      5-min Rain = 0
KTAS 030726Z 16007KT 25/15 A3004 RMK A01 T02480153  RH  056%=      5-min Rain = 0
KTAS 030727Z 16007KT 25/15 A3004 RMK A01 T02480153  RH  056%=      5-min Rain = 0
KTAS 030728Z 16007KT 25/15 A3004 RMK A01 T02480153  RH  056%=      5-min Rain = 0
KTAS 030729Z 16007KT 25/15 A3004 RMK A01 T02480153  RH  055%=      5-min Rain = 0
KTAS 030730Z 16007KT 25/15 A3004 RMK A01 T02480154  RH  056%=      5-min Rain = 0
KTAS 030731Z 16007KT 25/15 A3004 RMK A01 T02480153  RH  056%=      5-min Rain = 0
KTAS 030732Z 16006KT 25/15 A3004 RMK A01 T02480152  RH  055%=      5-min Rain = 0
KTAS 030733Z 16006KT 25/15 A3004 RMK A01 T02490151  RH  055%=      5-min Rain = 0
KTAS 030734Z 16006KT 25/15 A3004 RMK A01 T02490151  RH  055%=      5-min Rain = 0
KTAS 030735Z 16007KT 25/15 A3004 RMK A01 T02490153  RH  055%=      5-min Rain = 0
KTAS 030736Z 15007KT 25/15 A3004 RMK A01 T02490153  RH  055%=      5-min Rain = 0
KTAS 030737Z 16007KT 25/15 A3004 RMK A01 T02480152  RH  055%=      5-min Rain = 0
KTAS 030738Z 16007KT 25/15 A3004 RMK A01 T02480151  RH  055%=      5-min Rain = 0
KTAS 030739Z 17006KT 25/15 A3004 RMK A01 T02480152  RH  055%=      5-min Rain = 0
KTAS 030740Z 17006KT 25/15 A3004 RMK A01 T02470153  RH  056%=      5-min Rain = 0
KTAS 030741Z 17007KT 25/15 A3004 RMK A01 T02460154  RH  057%=      5-min Rain = 0
KTAS 030742Z 17007KT 25/15 A3004 RMK A01 T02450154  RH  057%=      5-min Rain = 0
KTAS 030743Z 17006KT 24/15 A3004 RMK A01 T02440153  RH  057%=      5-min Rain = 0
KTAS 030744Z 17006KT 24/15 A3004 RMK A01 T02420153  RH  057%=      5-min Rain = 0
KTAS 030745Z 17006KT 24/15 A3003 RMK A01 T02410153  RH  058%=      5-min Rain = 0
KTAS 030746Z 18006KT 24/15 A3003 RMK A01 T02400153  RH  058%=      5-min Rain = 0
KTAS 030747Z 18007KT 24/15 A3003 RMK A01 T02400153  RH  058%=      5-min Rain = 0
KTAS 030748Z 18007KT 24/15 A3003 RMK A01 T02390153  RH  059%=      5-min Rain = 0
KTAS 030749Z 17007KT 24/15 A3003 RMK A01 T02390151  RH  058%=      5-min Rain = 0
KTAS 030750Z 18006KT 24/15 A3003 RMK A01 T02390151  RH  058%=      5-min Rain = 0
KTAS 030751Z 18007KT 24/15 A3003 RMK A01 T02370152  RH  059%=      5-min Rain = 0
KTAS 030752Z 18007KT 24/15 A3003 RMK A01 T02360151  RH  059%=      5-min Rain = 0
KTAS 030753Z 18006KT 24/15 A3003 RMK A01 T02360152  RH  059%=      5-min Rain = 0
KTAS 030754Z 19006KT 23/15 A3003 RMK A01 T02340153  RH  060%=      5-min Rain = 0
KTAS 030755Z 18006KT 23/15 A3003 RMK A01 T02320154  RH  061%=      5-min Rain = 0
KTAS 030756Z 18006KT 23/15 A3003 RMK A01 T02310154  RH  062%=      5-min Rain = 0
KTAS 030757Z 19005KT 23/15 A3003 RMK A01 T02300154  RH  062%=      5-min Rain = 0
KTAS 030758Z 19005KT 23/16 A3003 RMK A01 T02290155  RH  063%=      5-min Rain = 0
KTAS 030759Z 19005KT 23/16 A3003 RMK A01 T02290155  RH  063%=      5-min Rain = 0
KTAS 030800Z 19005KT 23/16 A3004 RMK A01 T02290155  RH  063%=      5-min Rain = 0
KTAS 030801Z 19005KT 23/16 A3004 RMK A01 T02290155  RH  063%=      5-min Rain = 0
KTAS 030802Z 19004KT 23/16 A3004 RMK A01 T02280155  RH  063%=      5-min Rain = 0
KTAS 030803Z 19004KT 23/16 A3004 RMK A01 T02270155  RH  064%=      5-min Rain = 0
KTAS 030804Z 19004KT 23/16 A3004 RMK A01 T02270155  RH  064%=      5-min Rain = 0
KTAS 030805Z 20004KT 23/16 A3004 RMK A01 T02260156  RH  064%=      5-min Rain = 0
KTAS 030806Z 20004KT 23/16 A3004 RMK A01 T02260155  RH  064%=      5-min Rain = 0
KTAS 030807Z 20004KT 23/16 A3004 RMK A01 T02260156  RH  064%=      5-min Rain = 0
KTAS 030808Z 20004KT 23/16 A3003 RMK A01 T02260156  RH  064%=      5-min Rain = 0
KTAS 030809Z 21005KT 23/16 A3003 RMK A01 T02250155  RH  065%=      5-min Rain = 0
KTAS 030810Z 21005KT 22/16 A3003 RMK A01 T02240156  RH  065%=      5-min Rain = 0
KTAS 030811Z 21005KT 22/16 A3003 RMK A01 T02230156  RH  066%=      5-min Rain = 0
KTAS 030812Z 21005KT 22/16 A3003 RMK A01 T02210157  RH  067%=      5-min Rain = 0
KTAS 030813Z 21005KT 22/16 A3003 RMK A01 T02210157  RH  067%=      5-min Rain = 0
KTAS 030814Z 22005KT 22/16 A3003 RMK A01 T02210157  RH  067%=      5-min Rain = 0
KTAS 030815Z 22005KT 22/16 A3003 RMK A01 T02210158  RH  067%=      5-min Rain = 0
KTAS 030816Z 22005KT 22/16 A3003 RMK A01 T02210158  RH  067%=      5-min Rain = 0
KTAS 030817Z 22004KT 22/16 A3003 RMK A01 T02210158  RH  067%=      5-min Rain = 0
KTAS 030818Z 21004KT 22/16 A3003 RMK A01 T02220158  RH  067%=      5-min Rain = 0
KTAS 030819Z 21004KT 22/16 A3003 RMK A01 T02220158  RH  067%=      5-min Rain = 0
KTAS 030820Z 20004KT 22/16 A3003 RMK A01 T02220158  RH  067%=      5-min Rain = 0
KTAS 030821Z 20004KT 22/16 A3003 RMK A01 T02220158  RH  067%=      5-min Rain = 0
KTAS 030822Z 19003KT 22/16 A3003 RMK A01 T02220158  RH  067%=      5-min Rain = 0
KTAS 030823Z 18003KT 22/16 A3003 RMK A01 T02230157  RH  066%=      5-min Rain = 0
KTAS 030824Z 18003KT 22/16 A3003 RMK A01 T02240156  RH  066%=      5-min Rain = 0
KTAS 030825Z 18004KT 23/16 A3003 RMK A01 T02250156  RH  065%=      5-min Rain = 0
KTAS 030826Z 18004KT 23/16 A3003 RMK A01 T02260155  RH  064%=      5-min Rain = 0
KTAS 030827Z 18004KT 23/15 A3003 RMK A01 T02280154  RH  063%=      5-min Rain = 0
KTAS 030828Z 18005KT 23/15 A3003 RMK A01 T02300153  RH  062%=      5-min Rain = 0
KTAS 030829Z 18005KT 23/15 A3003 RMK A01 T02320152  RH  061%=      5-min Rain = 0
KTAS 030830Z 18005KT 23/15 A3003 RMK A01 T02330151  RH  060%=      5-min Rain = 0
KTAS 030831Z 18005KT 23/15 A3003 RMK A01 T02340151  RH  059%=      5-min Rain = 0
KTAS 030832Z 18005KT 24/15 A3003 RMK A01 T02360151  RH  059%=      5-min Rain = 0
KTAS 030833Z 18005KT 24/15 A3003 RMK A01 T02370151  RH  059%=      5-min Rain = 0
KTAS 030834Z 18005KT 24/15 A3003 RMK A01 T02370152  RH  059%=      5-min Rain = 0
KTAS 030835Z 18005KT 24/15 A3003 RMK A01 T02370152  RH  059%=      5-min Rain = 0
KTAS 030836Z 18005KT 24/15 A3003 RMK A01 T02370152  RH  059%=      5-min Rain = 0
KTAS 030837Z 18005KT 24/15 A3003 RMK A01 T02360153  RH  059%=      5-min Rain = 0
KTAS 030838Z 18005KT 24/15 A3003 RMK A01 T02360153  RH  060%=      5-min Rain = 0
KTAS 030839Z 18005KT 24/15 A3003 RMK A01 T02350153  RH  060%=      5-min Rain = 0
KTAS 030840Z 18005KT 23/15 A3003 RMK A01 T02340153  RH  060%=      5-min Rain = 0
KTAS 030841Z 18005KT 23/15 A3003 RMK A01 T02340153  RH  060%=      5-min Rain = 0
KTAS 030842Z 18005KT 23/15 A3003 RMK A01 T02340153  RH  060%=      5-min Rain = 0
KTAS 030843Z 18006KT 23/15 A3003 RMK A01 T02330153  RH  061%=      5-min Rain = 0
KTAS 030844Z 18005KT 23/15 A3003 RMK A01 T02320153  RH  061%=      5-min Rain = 0
KTAS 030845Z 18006KT 23/15 A3003 RMK A01 T02320152  RH  061%=      5-min Rain = 0
KTAS 030846Z 17006KT 23/15 A3003 RMK A01 T02320153  RH  061%=      5-min Rain = 0
KTAS 030847Z 17006KT 23/15 A3003 RMK A01 T02320152  RH  061%=      5-min Rain = 0
KTAS 030848Z 17006KT 23/15 A3003 RMK A01 T02320151  RH  060%=      5-min Rain = 0
KTAS 030849Z 17006KT 23/15 A3003 RMK A01 T02330151  RH  060%=      5-min Rain = 0
KTAS 030850Z 17006KT 23/15 A3003 RMK A01 T02330150  RH  059%=      5-min Rain = 0
KTAS 030851Z 17006KT 23/15 A3003 RMK A01 T02340149  RH  059%=      5-min Rain = 0
KTAS 030852Z 17005KT 24/15 A3003 RMK A01 T02350149  RH  058%=      5-min Rain = 0
KTAS 030853Z 17005KT 24/15 A3003 RMK A01 T02360148  RH  058%=      5-min Rain = 0
KTAS 030854Z 17005KT 24/15 A3003 RMK A01 T02370148  RH  057%=      5-min Rain = 0
KTAS 030855Z 17005KT 24/15 A3003 RMK A01 T02380148  RH  057%=      5-min Rain = 0
KTAS 030856Z 17005KT 24/15 A3003 RMK A01 T02380148  RH  057%=      5-min Rain = 0
KTAS 030857Z 17005KT 24/15 A3003 RMK A01 T02380148  RH  057%=      5-min Rain = 0
KTAS 030858Z 17005KT 24/15 A3003 RMK A01 T02390148  RH  057%=      5-min Rain = 0
KTAS 030859Z 17005KT 24/15 A3003 RMK A01 T02390148  RH  057%=      5-min Rain = 0
KTAS 030900Z 17004KT 24/15 A3003 RMK A01 T02390147  RH  057%=      5-min Rain = 0
KTAS 030901Z 17004KT 24/15 A3003 RMK A01 T02390146  RH  056%=      5-min Rain = 0
KTAS 030902Z 17004KT 24/15 A3004 RMK A01 T02390146  RH  056%=      5-min Rain = 0
KTAS 030903Z 17004KT 24/15 A3004 RMK A01 T02390146  RH  056%=      5-min Rain = 0
KTAS 030904Z 17004KT 24/15 A3004 RMK A01 T02390147  RH  056%=      5-min Rain = 0
KTAS 030905Z 17004KT 24/15 A3004 RMK A01 T02390147  RH  057%=      5-min Rain = 0
KTAS 030906Z 17003KT 24/15 A3004 RMK A01 T02380148  RH  057%=      5-min Rain = 0
KTAS 030907Z 17003KT 24/15 A3004 RMK A01 T02370147  RH  057%=      5-min Rain = 0
KTAS 030908Z 17003KT 24/15 A3004 RMK A01 T02370148  RH  057%=      5-min Rain = 0
KTAS 030909Z 17003KT 24/15 A3004 RMK A01 T02370147  RH  057%=      5-min Rain = 0
KTAS 030910Z 17004KT 24/15 A3004 RMK A01 T02370147  RH  057%=      5-min Rain = 0
KTAS 030911Z 17004KT 24/15 A3004 RMK A01 T02370147  RH  057%=      5-min Rain = 0
KTAS 030912Z 17004KT 24/15 A3004 RMK A01 T02380147  RH  057%=      5-min Rain = 0
KTAS 030913Z 17004KT 24/15 A3004 RMK A01 T02380147  RH  057%=      5-min Rain = 0
KTAS 030914Z 17004KT 24/15 A3004 RMK A01 T02370148  RH  057%=      5-min Rain = 0
KTAS 030915Z 17003KT 24/15 A3004 RMK A01 T02360149  RH  058%=      5-min Rain = 0
KTAS 030916Z 17002KT 23/15 A3004 RMK A01 T02340149  RH  059%=      5-min Rain = 0
KTAS 030917Z 14002KT 23/15 A3004 RMK A01 T02320149  RH  059%=      5-min Rain = 0
KTAS 030918Z 14001KT 23/15 A3004 RMK A01 T02300148  RH  060%=      5-min Rain = 0
KTAS 030919Z 13002KT 23/15 A3004 RMK A01 T02290149  RH  060%=      5-min Rain = 0
KTAS 030920Z 10002KT 23/15 A3004 RMK A01 T02260150  RH  062%=      5-min Rain = 0
KTAS 030921Z 08002KT 22/15 A3004 RMK A01 T02220150  RH  064%=      5-min Rain = 0
KTAS 030922Z 09002KT 22/15 A3004 RMK A01 T02200151  RH  065%=      5-min Rain = 0
KTAS 030923Z 09003KT 22/15 A3004 RMK A01 T02180151  RH  066%=      5-min Rain = 0
KTAS 030924Z 09003KT 22/15 A3004 RMK A01 T02160152  RH  067%=      5-min Rain = 0
KTAS 030925Z 08003KT 22/15 A3004 RMK A01 T02150152  RH  067%=      5-min Rain = 0
KTAS 030926Z 08004KT 22/15 A3004 RMK A01 T02150152  RH  067%=      5-min Rain = 0
KTAS 030927Z 09003KT 22/15 A3004 RMK A01 T02150151  RH  067%=      5-min Rain = 0
KTAS 030928Z 08004KT 22/15 A3004 RMK A01 T02160151  RH  066%=      5-min Rain = 0
KTAS 030929Z 07004KT 22/15 A3004 RMK A01 T02170150  RH  066%=      5-min Rain = 0
KTAS 030930Z 07004KT 22/15 A3004 RMK A01 T02170151  RH  066%=      5-min Rain = 0
KTAS 030931Z 06004KT 22/15 A3004 RMK A01 T02170151  RH  066%=      5-min Rain = 0
KTAS 030932Z 06004KT 22/15 A3004 RMK A01 T02160152  RH  067%=      5-min Rain = 0
KTAS 030933Z 06004KT 22/15 A3004 RMK A01 T02160152  RH  067%=      5-min Rain = 0
KTAS 030934Z 06003KT 22/15 A3004 RMK A01 T02160153  RH  067%=      5-min Rain = 0
KTAS 030935Z 08003KT 22/15 A3004 RMK A01 T02150153  RH  068%=      5-min Rain = 0
KTAS 030936Z 08002KT 22/15 A3004 RMK A01 T02150152  RH  068%=      5-min Rain = 0
KTAS 030937Z 08002KT 21/15 A3004 RMK A01 T02140153  RH  068%=      5-min Rain = 0
KTAS 030938Z 08002KT 21/15 A3004 RMK A01 T02140153  RH  068%=      5-min Rain = 0
KTAS 030939Z 08002KT 21/15 A3004 RMK A01 T02140153  RH  068%=      5-min Rain = 0
KTAS 030940Z 09002KT 21/15 A3004 RMK A01 T02130153  RH  068%=      5-min Rain = 0
KTAS 030941Z 09002KT 21/15 A3004 RMK A01 T02130153  RH  068%=      5-min Rain = 0
KTAS 030942Z 09002KT 21/15 A3004 RMK A01 T02130153  RH  068%=      5-min Rain = 0
KTAS 030943Z 09002KT 21/15 A3004 RMK A01 T02130153  RH  069%=      5-min Rain = 0
KTAS 030944Z 10002KT 21/15 A3004 RMK A01 T02130153  RH  069%=      5-min Rain = 0
KTAS 030945Z 10002KT 21/15 A3004 RMK A01 T02130153  RH  069%=      5-min Rain = 0
KTAS 030946Z 10002KT 21/15 A3004 RMK A01 T02130153  RH  069%=      5-min Rain = 0
KTAS 030947Z 10001KT 21/15 A3004 RMK A01 T02130153  RH  069%=      5-min Rain = 0
KTAS 030948Z 10001KT 21/15 A3004 RMK A01 T02120153  RH  069%=      5-min Rain = 0
KTAS 030949Z 10000KT 21/15 A3004 RMK A01 T02110153  RH  069%=      5-min Rain = 0
KTAS 030950Z 17001KT 21/15 A3004 RMK A01 T02110153  RH  069%=      5-min Rain = 0
KTAS 030951Z 00000KT 21/15 A3004 RMK A01 T02110153  RH  069%=      5-min Rain = 0
KTAS 030952Z 00000KT 21/15 A3004 RMK A01 T02100153  RH  070%=      5-min Rain = 0
KTAS 030953Z 00000KT 21/15 A3004 RMK A01 T02090153  RH  070%=      5-min Rain = 0
KTAS 030954Z 00000KT 21/15 A3004 RMK A01 T02080152  RH  071%=      5-min Rain = 0
KTAS 030955Z 00000KT 21/15 A3005 RMK A01 T02050152  RH  071%=      5-min Rain = 0
KTAS 030956Z 00000KT 20/15 A3005 RMK A01 T02030151  RH  072%=      5-min Rain = 0
KTAS 030957Z 00000KT 20/15 A3005 RMK A01 T02010151  RH  073%=      5-min Rain = 0
KTAS 030958Z 00000KT 20/15 A3005 RMK A01 T02000151  RH  073%=      5-min Rain = 0
KTAS 030959Z 00000KT 20/15 A3005 RMK A01 T02000151  RH  074%=      5-min Rain = 0
KTAS 031000Z 00000KT 20/15 A3005 RMK A01 T01990152  RH  074%=      5-min Rain = 0
KTAS 031001Z 00000KT 20/15 A3005 RMK A01 T01990152  RH  074%=      5-min Rain = 0
KTAS 031002Z 00000KT 20/15 A3005 RMK A01 T02000152  RH  074%=      5-min Rain = 0
KTAS 031003Z 00000KT 20/15 A3005 RMK A01 T01990152  RH  074%=      5-min Rain = 0
KTAS 031004Z 00000KT 20/15 A3005 RMK A01 T02000152  RH  074%=      5-min Rain = 0
KTAS 031005Z 17000KT 20/15 A3005 RMK A01 T02010152  RH  073%=      5-min Rain = 0
KTAS 031006Z 00000KT 20/15 A3005 RMK A01 T02010151  RH  073%=      5-min Rain = 0
KTAS 031007Z 17000KT 20/15 A3005 RMK A01 T02020152  RH  073%=      5-min Rain = 0
KTAS 031008Z 15000KT 20/15 A3005 RMK A01 T02030152  RH  072%=      5-min Rain = 0
KTAS 031009Z 03000KT 20/15 A3005 RMK A01 T02040152  RH  072%=      5-min Rain = 0
KTAS 031010Z 03001KT 21/15 A3005 RMK A01 T02050152  RH  072%=      5-min Rain = 0
KTAS 031011Z 02002KT 21/15 A3005 RMK A01 T02050152  RH  072%=      5-min Rain = 0
KTAS 031012Z 00002KT 21/15 A3005 RMK A01 T02050152  RH  072%=      5-min Rain = 0
KTAS 031013Z 36003KT 20/15 A3005 RMK A01 T02030151  RH  072%=      5-min Rain = 0
KTAS 031014Z 35003KT 20/15 A3005 RMK A01 T02020151  RH  073%=      5-min Rain = 0
KTAS 031015Z 35003KT 20/15 A3005 RMK A01 T02010152  RH  073%=      5-min Rain = 0
KTAS 031016Z 35004KT 20/15 A3005 RMK A01 T02000152  RH  074%=      5-min Rain = 0
KTAS 031017Z 35004KT 20/15 A3006 RMK A01 T02000153  RH  074%=      5-min Rain = 0
KTAS 031018Z 35004KT 20/15 A3006 RMK A01 T01990153  RH  075%=      5-min Rain = 0
KTAS 031019Z 35004KT 20/15 A3006 RMK A01 T01980152  RH  075%=      5-min Rain = 0
KTAS 031020Z 35004KT 20/15 A3006 RMK A01 T01970152  RH  075%=      5-min Rain = 0
KTAS 031021Z 35005KT 20/15 A3006 RMK A01 T01960152  RH  076%=      5-min Rain = 0
KTAS 031022Z 35005KT 20/15 A3006 RMK A01 T01950152  RH  076%=      5-min Rain = 0
KTAS 031023Z 35004KT 20/15 A3006 RMK A01 T01950153  RH  077%=      5-min Rain = 0
KTAS 031024Z 35004KT 19/15 A3006 RMK A01 T01940153  RH  077%=      5-min Rain = 0
KTAS 031025Z 35004KT 19/15 A3006 RMK A01 T01940154  RH  078%=      5-min Rain = 0
KTAS 031026Z 35004KT 19/16 A3006 RMK A01 T01930155  RH  078%=      5-min Rain = 0
KTAS 031027Z 35004KT 19/16 A3006 RMK A01 T01930155  RH  079%=      5-min Rain = 0
KTAS 031028Z 35004KT 19/16 A3006 RMK A01 T01930156  RH  079%=      5-min Rain = 0
KTAS 031029Z 35004KT 19/16 A3006 RMK A01 T01940158  RH  079%=      5-min Rain = 0
KTAS 031030Z 35004KT 20/16 A3006 RMK A01 T01950158  RH  079%=      5-min Rain = 0
KTAS 031031Z 35003KT 20/16 A3006 RMK A01 T01960158  RH  079%=      5-min Rain = 0
KTAS 031032Z 35003KT 20/16 A3006 RMK A01 T01960158  RH  078%=      5-min Rain = 0
KTAS 031033Z 35004KT 20/16 A3006 RMK A01 T01960158  RH  078%=      5-min Rain = 0
KTAS 031034Z 35004KT 20/16 A3006 RMK A01 T01960158  RH  078%=      5-min Rain = 0
KTAS 031035Z 35004KT 20/16 A3006 RMK A01 T01960158  RH  079%=      5-min Rain = 0
KTAS 031036Z 35004KT 20/16 A3006 RMK A01 T01970159  RH  079%=      5-min Rain = 0
KTAS 031037Z 35004KT 20/16 A3006 RMK A01 T01970159  RH  078%=      5-min Rain = 0
KTAS 031038Z 35003KT 20/16 A3006 RMK A01 T01970158  RH  078%=      5-min Rain = 0
KTAS 031039Z 35003KT 20/16 A3006 RMK A01 T01970158  RH  078%=      5-min Rain = 0
KTAS 031040Z 35003KT 20/16 A3006 RMK A01 T01970158  RH  078%=      5-min Rain = 0
KTAS 031041Z 35004KT 20/16 A3006 RMK A01 T01970158  RH  078%=      5-min Rain = 0
KTAS 031042Z 35004KT 20/16 A3006 RMK A01 T01980159  RH  078%=      5-min Rain = 0
KTAS 031043Z 35004KT 20/16 A3006 RMK A01 T01990159  RH  078%=      5-min Rain = 0
KTAS 031044Z 35003KT 20/16 A3006 RMK A01 T01990159  RH  078%=      5-min Rain = 0
KTAS 031045Z 35003KT 20/16 A3006 RMK A01 T01990159  RH  078%=      5-min Rain = 0
KTAS 031046Z 35003KT 20/16 A3006 RMK A01 T01990159  RH  078%=      5-min Rain = 0
KTAS 031047Z 35003KT 20/16 A3006 RMK A01 T01990159  RH  078%=      5-min Rain = 0
KTAS 031048Z 35003KT 20/16 A3006 RMK A01 T01990159  RH  077%=      5-min Rain = 0
KTAS 031049Z 35003KT 20/16 A3006 RMK A01 T01990158  RH  077%=      5-min Rain = 0
KTAS 031050Z 35003KT 20/16 A3006 RMK A01 T01990158  RH  077%=      5-min Rain = 0
KTAS 031051Z 35003KT 20/16 A3006 RMK A01 T01980158  RH  078%=      5-min Rain = 0
KTAS 031052Z 34003KT 20/16 A3006 RMK A01 T01980158  RH  078%=      5-min Rain = 0
KTAS 031053Z 34003KT 20/16 A3006 RMK A01 T01970158  RH  078%=      5-min Rain = 0
KTAS 031054Z 33003KT 20/16 A3006 RMK A01 T01970158  RH  078%=      5-min Rain = 0
KTAS 031055Z 33003KT 20/16 A3006 RMK A01 T01960158  RH  078%=      5-min Rain = 0
KTAS 031056Z 33003KT 20/16 A3006 RMK A01 T01960158  RH  079%=      5-min Rain = 0
KTAS 031057Z 33003KT 20/16 A3006 RMK A01 T01960158  RH  079%=      5-min Rain = 0
KTAS 031058Z 33003KT 20/16 A3006 RMK A01 T01970159  RH  079%=      5-min Rain = 0
KTAS 031059Z 33003KT 20/16 A3006 RMK A01 T01980160  RH  079%=      5-min Rain = 0
KTAS 031100Z 34003KT 20/16 A3006 RMK A01 T01980160  RH  078%=      5-min Rain = 0
KTAS 031101Z 34003KT 20/16 A3006 RMK A01 T01990159  RH  078%=      5-min Rain = 0
KTAS 031102Z 34003KT 20/16 A3006 RMK A01 T01990159  RH  078%=      5-min Rain = 0
KTAS 031103Z 34004KT 20/16 A3006 RMK A01 T01990160  RH  078%=      5-min Rain = 0
KTAS 031104Z 34004KT 20/16 A3006 RMK A01 T01990160  RH  078%=      5-min Rain = 0
KTAS 031105Z 34003KT 20/16 A3006 RMK A01 T01990160  RH  078%=      5-min Rain = 0
KTAS 031106Z 34003KT 20/16 A3006 RMK A01 T01990159  RH  078%=      5-min Rain = 0
KTAS 031107Z 34003KT 20/16 A3006 RMK A01 T02000160  RH  078%=      5-min Rain = 0
KTAS 031108Z 34003KT 20/16 A3006 RMK A01 T02000160  RH  078%=      5-min Rain = 0
KTAS 031109Z 35003KT 20/16 A3006 RMK A01 T02000160  RH  078%=      5-min Rain = 0
KTAS 031110Z 35003KT 20/16 A3006 RMK A01 T02000160  RH  078%=      5-min Rain = 0
KTAS 031111Z 36003KT 20/16 A3006 RMK A01 T02010161  RH  078%=      5-min Rain = 0
KTAS 031112Z 00003KT 20/16 A3007 RMK A01 T02010161  RH  078%=      5-min Rain = 0
KTAS 031113Z 01003KT 20/16 A3007 RMK A01 T02010161  RH  078%=      5-min Rain = 0
KTAS 031114Z 01003KT 20/16 A3007 RMK A01 T02000160  RH  077%=      5-min Rain = 0
KTAS 031115Z 01003KT 20/16 A3007 RMK A01 T01990159  RH  078%=      5-min Rain = 0
KTAS 031116Z 01002KT 20/16 A3007 RMK A01 T01980158  RH  078%=      5-min Rain = 0
KTAS 031117Z 01002KT 20/16 A3007 RMK A01 T01970158  RH  078%=      5-min Rain = 0
KTAS 031118Z 01002KT 20/16 A3007 RMK A01 T01970158  RH  078%=      5-min Rain = 0
KTAS 031119Z 01002KT 20/16 A3007 RMK A01 T01960158  RH  079%=      5-min Rain = 0
KTAS 031120Z 01002KT 20/16 A3007 RMK A01 T01960159  RH  079%=      5-min Rain = 0
KTAS 031121Z 01002KT 20/16 A3007 RMK A01 T01950159  RH  079%=      5-min Rain = 0
KTAS 031122Z 01001KT 20/16 A3007 RMK A01 T01950159  RH  080%=      5-min Rain = 0
KTAS 031123Z 01002KT 20/16 A3007 RMK A01 T01950159  RH  080%=      5-min Rain = 0
KTAS 031124Z 01002KT 20/16 A3007 RMK A01 T01950160  RH  080%=      5-min Rain = 0
KTAS 031125Z 01002KT 20/16 A3007 RMK A01 T01950160  RH  080%=      5-min Rain = 0
KTAS 031126Z 01001KT 20/16 A3007 RMK A01 T01960161  RH  080%=      5-min Rain = 0
KTAS 031127Z 01000KT 20/16 A3007 RMK A01 T01970161  RH  080%=      5-min Rain = 0
KTAS 031128Z 00000KT 20/16 A3007 RMK A01 T01990162  RH  079%=      5-min Rain = 0
KTAS 031129Z 00000KT 20/16 A3007 RMK A01 T01990161  RH  079%=      5-min Rain = 0
KTAS 031130Z 00000KT 20/16 A3007 RMK A01 T01990161  RH  078%=      5-min Rain = 0
KTAS 031131Z 00000KT 20/16 A3007 RMK A01 T01990160  RH  078%=      5-min Rain = 0
KTAS 031132Z 00000KT 20/16 A3007 RMK A01 T01980159  RH  078%=      5-min Rain = 0
KTAS 031133Z 00000KT 20/16 A3007 RMK A01 T01970159  RH  079%=      5-min Rain = 0
KTAS 031134Z 00000KT 20/16 A3007 RMK A01 T01960160  RH  079%=      5-min Rain = 0
KTAS 031135Z 00000KT 20/16 A3007 RMK A01 T01960160  RH  080%=      5-min Rain = 0
KTAS 031136Z 28001KT 20/16 A3007 RMK A01 T01970161  RH  080%=      5-min Rain = 0
KTAS 031137Z 28001KT 20/16 A3006 RMK A01 T01980162  RH  079%=      5-min Rain = 0
KTAS 031138Z 28001KT 20/16 A3006 RMK A01 T01990161  RH  079%=      5-min Rain = 0
KTAS 031139Z 28001KT 20/16 A3007 RMK A01 T01980161  RH  079%=      5-min Rain = 0
KTAS 031140Z 28001KT 20/16 A3007 RMK A01 T01980161  RH  079%=      5-min Rain = 0
KTAS 031141Z 28000KT 20/16 A3007 RMK A01 T01980161  RH  079%=      5-min Rain = 0
KTAS 031142Z 28000KT 20/16 A3007 RMK A01 T01990162  RH  079%=      5-min Rain = 0
KTAS 031143Z 00000KT 20/16 A3007 RMK A01 T01990162  RH  079%=      5-min Rain = 0
KTAS 031144Z 00000KT 20/16 A3007 RMK A01 T01990163  RH  079%=      5-min Rain = 0
KTAS 031145Z 00000KT 20/16 A3007 RMK A01 T02000163  RH  079%=      5-min Rain = 0
KTAS 031146Z 00000KT 20/16 A3007 RMK A01 T02000162  RH  079%=      5-min Rain = 0
KTAS 031147Z 00000KT 20/16 A3007 RMK A01 T02000162  RH  079%=      5-min Rain = 0
KTAS 031148Z 00000KT 20/16 A3007 RMK A01 T02010162  RH  078%=      5-min Rain = 0
KTAS 031149Z 00000KT 20/16 A3007 RMK A01 T02000161  RH  078%=      5-min Rain = 0
KTAS 031150Z 00000KT 20/16 A3007 RMK A01 T01990160  RH  078%=      5-min Rain = 0
KTAS 031151Z 28000KT 20/16 A3007 RMK A01 T01990160  RH  078%=      5-min Rain = 0
KTAS 031152Z 28000KT 20/16 A3007 RMK A01 T01990161  RH  079%=      5-min Rain = 0
KTAS 031153Z 00000KT 20/16 A3007 RMK A01 T01990162  RH  079%=      5-min Rain = 0
KTAS 031154Z 00000KT 20/16 A3007 RMK A01 T02010162  RH  079%=      5-min Rain = 0
KTAS 031155Z 18002KT 20/16 A3007 RMK A01 T02010161  RH  078%=      5-min Rain = 0
KTAS 031156Z 17002KT 20/16 A3007 RMK A01 T02020161  RH  077%=      5-min Rain = 0
KTAS 031157Z 14001KT 20/16 A3007 RMK A01 T02020161  RH  077%=      5-min Rain = 0
KTAS 031158Z 15001KT 20/16 A3007 RMK A01 T02020161  RH  077%=      5-min Rain = 0
KTAS 031159Z 15001KT 20/16 A3007 RMK A01 T02010161  RH  077%=      5-min Rain = 0
KTAS 031200Z 16001KT 20/16 A3007 RMK A01 T02010161  RH  078%=      5-min Rain = 0
KTAS 031201Z 16001KT 20/16 A3007 RMK A01 T02010161  RH  078%=      5-min Rain = 0
KTAS 031202Z 15001KT 20/16 A3007 RMK A01 T02010162  RH  078%=      5-min Rain = 0
KTAS 031203Z 14001KT 20/16 A3007 RMK A01 T02010162  RH  078%=      5-min Rain = 0
KTAS 031204Z 11001KT 20/16 A3007 RMK A01 T02010162  RH  078%=      5-min Rain = 0
KTAS 031205Z 13001KT 20/16 A3007 RMK A01 T02010162  RH  078%=      5-min Rain = 0
KTAS 031206Z 12002KT 20/16 A3008 RMK A01 T02010162  RH  078%=      5-min Rain = 0
KTAS 031207Z 11002KT 20/16 A3008 RMK A01 T02000161  RH  078%=      5-min Rain = 0
KTAS 031208Z 11002KT 20/16 A3008 RMK A01 T02000161  RH  078%=      5-min Rain = 0
KTAS 031209Z 13002KT 20/16 A3008 RMK A01 T01990161  RH  078%=      5-min Rain = 0
KTAS 031210Z 12003KT 20/16 A3008 RMK A01 T01990161  RH  079%=      5-min Rain = 0
KTAS 031211Z 13002KT 20/16 A3008 RMK A01 T01990161  RH  079%=      5-min Rain = 0
KTAS 031212Z 12002KT 20/16 A3008 RMK A01 T01990162  RH  079%=      5-min Rain = 0
KTAS 031213Z 14002KT 20/16 A3008 RMK A01 T01980162  RH  080%=      5-min Rain = 0
KTAS 031214Z 14003KT 20/16 A3008 RMK A01 T01970162  RH  080%=      5-min Rain = 0
KTAS 031215Z 14002KT 20/16 A3008 RMK A01 T01970162  RH  080%=      5-min Rain = 0
KTAS 031216Z 14003KT 20/16 A3008 RMK A01 T01970162  RH  080%=      5-min Rain = 0
KTAS 031217Z 14003KT 20/16 A3008 RMK A01 T01980162  RH  080%=      5-min Rain = 0
KTAS 031218Z 13003KT 20/16 A3008 RMK A01 T01990162  RH  079%=      5-min Rain = 0
KTAS 031219Z 13003KT 20/16 A3008 RMK A01 T02010161  RH  078%=      5-min Rain = 0
KTAS 031220Z 14003KT 20/16 A3008 RMK A01 T02020162  RH  077%=      5-min Rain = 0
KTAS 031221Z 14003KT 20/16 A3008 RMK A01 T02040161  RH  076%=      5-min Rain = 0
KTAS 031222Z 12002KT 21/16 A3008 RMK A01 T02080159  RH  074%=      5-min Rain = 0
KTAS 031223Z 11002KT 21/16 A3008 RMK A01 T02100162  RH  074%=      5-min Rain = 0
KTAS 031224Z 11002KT 21/16 A3008 RMK A01 T02110161  RH  073%=      5-min Rain = 0
KTAS 031225Z 10002KT 21/16 A3008 RMK A01 T02110163  RH  074%=      5-min Rain = 0
KTAS 031226Z 10002KT 21/16 A3008 RMK A01 T02110164  RH  074%=      5-min Rain = 0
KTAS 031227Z 11002KT 21/16 A3009 RMK A01 T02110163  RH  074%=      5-min Rain = 0
KTAS 031228Z 12002KT 21/16 A3009 RMK A01 T02120162  RH  073%=      5-min Rain = 0
KTAS 031229Z 12003KT 21/16 A3009 RMK A01 T02130161  RH  072%=      5-min Rain = 0
KTAS 031230Z 13002KT 21/16 A3009 RMK A01 T02140162  RH  072%=      5-min Rain = 0
KTAS 031231Z 13002KT 22/16 A3009 RMK A01 T02160163  RH  072%=      5-min Rain = 0
KTAS 031232Z 13003KT 22/16 A3009 RMK A01 T02170160  RH  070%=      5-min Rain = 0
KTAS 031233Z 13003KT 22/16 A3009 RMK A01 T02190157  RH  068%=      5-min Rain = 0
KTAS 031234Z 14002KT 22/16 A3009 RMK A01 T02220157  RH  067%=      5-min Rain = 0
KTAS 031235Z 15002KT 22/16 A3009 RMK A01 T02240156  RH  065%=      5-min Rain = 0
KTAS 031236Z 15002KT 23/16 A3009 RMK A01 T02260156  RH  065%=      5-min Rain = 0
KTAS 031237Z 15001KT 23/16 A3009 RMK A01 T02280158  RH  065%=      5-min Rain = 0
KTAS 031238Z 17001KT 23/16 A3009 RMK A01 T02290161  RH  065%=      5-min Rain = 0
KTAS 031239Z 19003KT 23/17 A3009 RMK A01 T02290165  RH  067%=      5-min Rain = 0
KTAS 031240Z 20002KT 23/17 A3009 RMK A01 T02280169  RH  069%=      5-min Rain = 0
KTAS 031241Z 20002KT 23/17 A3009 RMK A01 T02280173  RH  071%=      5-min Rain = 0
KTAS 031242Z 20001KT 23/17 A3009 RMK A01 T02270173  RH  071%=      5-min Rain = 0
KTAS 031243Z 20000KT 23/17 A3009 RMK A01 T02260172  RH  071%=      5-min Rain = 0
KTAS 031244Z 19000KT 23/17 A3009 RMK A01 T02270172  RH  071%=      5-min Rain = 0
KTAS 031245Z 15000KT 23/17 A3009 RMK A01 T02270170  RH  070%=      5-min Rain = 0
KTAS 031246Z 09001KT 23/17 A3009 RMK A01 T02280173  RH  071%=      5-min Rain = 0
KTAS 031247Z 11002KT 23/17 A3009 RMK A01 T02290173  RH  071%=      5-min Rain = 0
KTAS 031248Z 11003KT 23/17 A3009 RMK A01 T02300172  RH  070%=      5-min Rain = 0
KTAS 031249Z 12002KT 23/17 A3009 RMK A01 T02320172  RH  069%=      5-min Rain = 0
KTAS 031250Z 13001KT 23/18 A3009 RMK A01 T02340175  RH  070%=      5-min Rain = 0
KTAS 031251Z 11001KT 24/18 A3009 RMK A01 T02350175  RH  069%=      5-min Rain = 0
KTAS 031252Z 13002KT 24/17 A3009 RMK A01 T02370174  RH  068%=      5-min Rain = 0
KTAS 031253Z 13003KT 24/17 A3009 RMK A01 T02380171  RH  066%=      5-min Rain = 0
KTAS 031254Z 13003KT 24/16 A3009 RMK A01 T02390164  RH  063%=      5-min Rain = 0
KTAS 031255Z 13003KT 24/16 A3009 RMK A01 T02410160  RH  061%=      5-min Rain = 0
KTAS 031256Z 14003KT 24/16 A3009 RMK A01 T02430160  RH  060%=      5-min Rain = 0
KTAS 031257Z 14002KT 24/16 A3009 RMK A01 T02440157  RH  058%=      5-min Rain = 0
KTAS 031258Z 13002KT 25/16 A3009 RMK A01 T02460157  RH  058%=      5-min Rain = 0
KTAS 031259Z 15001KT 25/16 A3009 RMK A01 T02470158  RH  058%=      5-min Rain = 0
KTAS 031300Z 13002KT 25/16 A3009 RMK A01 T02480159  RH  058%=      5-min Rain = 0
KTAS 031301Z 13002KT 25/16 A3009 RMK A01 T02480158  RH  057%=      5-min Rain = 0
KTAS 031302Z 14002KT 25/16 A3009 RMK A01 T02490160  RH  057%=      5-min Rain = 0
KTAS 031303Z 12003KT 25/16 A3009 RMK A01 T02490160  RH  057%=      5-min Rain = 0
KTAS 031304Z 12003KT 25/16 A3009 RMK A01 T02490161  RH  058%=      5-min Rain = 0
KTAS 031305Z 13003KT 25/16 A3009 RMK A01 T02490161  RH  058%=      5-min Rain = 0
KTAS 031306Z 14003KT 25/16 A3009 RMK A01 T02490160  RH  058%=      5-min Rain = 0
KTAS 031307Z 15002KT 25/16 A3009 RMK A01 T02490163  RH  059%=      5-min Rain = 0
KTAS 031308Z 14002KT 25/17 A3009 RMK A01 T02500165  RH  059%=      5-min Rain = 0
KTAS 031309Z 14003KT 25/17 A3009 RMK A01 T02520165  RH  059%=      5-min Rain = 0
KTAS 031310Z 14003KT 25/16 A3009 RMK A01 T02520163  RH  058%=      5-min Rain = 0
KTAS 031311Z 15003KT 25/16 A3009 RMK A01 T02520162  RH  057%=      5-min Rain = 0
KTAS 031312Z 15003KT 25/16 A3009 RMK A01 T02530163  RH  057%=      5-min Rain = 0
KTAS 031313Z 15005KT 25/16 A3009 RMK A01 T02530161  RH  057%=      5-min Rain = 0
KTAS 031314Z 15005KT 25/16 A3009 RMK A01 T02530159  RH  056%=      5-min Rain = 0
KTAS 031315Z 16006KT 25/16 A3009 RMK A01 T02530158  RH  056%=      5-min Rain = 0
KTAS 031316Z 16006KT 25/16 A3009 RMK A01 T02530155  RH  054%=      5-min Rain = 0
KTAS 031317Z 16006KT 25/16 A3009 RMK A01 T02540155  RH  054%=      5-min Rain = 0
KTAS 031318Z 16007KT 25/16 A3009 RMK A01 T02540157  RH  055%=      5-min Rain = 0
KTAS 031319Z 16007KT 25/16 A3009 RMK A01 T02540156  RH  054%=      5-min Rain = 0
KTAS 031320Z 15006KT 25/16 A3009 RMK A01 T02530155  RH  055%=      5-min Rain = 0
KTAS 031321Z 15006KT 25/16 A3009 RMK A01 T02540157  RH  055%=      5-min Rain = 0
KTAS 031322Z 16006KT 26/16 A3009 RMK A01 T02550158  RH  055%=      5-min Rain = 0
KTAS 031323Z 16007KT 26/16 A3009 RMK A01 T02560160  RH  055%=      5-min Rain = 0
KTAS 031324Z 16008KT 26/16 A3009 RMK A01 T02570156  RH  054%=      5-min Rain = 0
KTAS 031325Z 16008KT 26/16 A3009 RMK A01 T02570155  RH  053%=      5-min Rain = 0
KTAS 031326Z 16008KT 26/16 A3009 RMK A01 T02580156  RH  053%=      5-min Rain = 0
KTAS 031327Z 15009KT 26/16 A3008 RMK A01 T02580155  RH  053%=      5-min Rain = 0
KTAS 031328Z 16008KT 26/15 A3008 RMK A01 T02580153  RH  052%=      5-min Rain = 0
KTAS 031329Z 16007KT 26/16 A3009 RMK A01 T02590156  RH  053%=      5-min Rain = 0
KTAS 031330Z 16008KT 26/16 A3009 RMK A01 T02600157  RH  053%=      5-min Rain = 0
KTAS 031331Z 16009KT 26/16 A3009 RMK A01 T02600156  RH  053%=      5-min Rain = 0
KTAS 031332Z 16010KT 26/16 A3009 RMK A01 T02600156  RH  053%=      5-min Rain = 0
KTAS 031333Z 16010KT 26/16 A3009 RMK A01 T02600156  RH  053%=      5-min Rain = 0
KTAS 031334Z 16011KT 26/16 A3009 RMK A01 T02600156  RH  053%=      5-min Rain = 0
KTAS 031335Z 17008KT 26/16 A3009 RMK A01 T02610159  RH  053%=      5-min Rain = 0
KTAS 031336Z 17009KT 26/16 A3009 RMK A01 T02610158  RH  053%=      5-min Rain = 0
KTAS 031337Z 18010KT 26/16 A3009 RMK A01 T02610159  RH  053%=      5-min Rain = 0
KTAS 031338Z 17010KT 26/16 A3009 RMK A01 T02610160  RH  054%=      5-min Rain = 0
KTAS 031339Z 18011KT 26/16 A3009 RMK A01 T02610159  RH  053%=      5-min Rain = 0
KTAS 031340Z 17009KT 26/16 A3009 RMK A01 T02610159  RH  053%=      5-min Rain = 0
KTAS 031341Z 18010KT 26/16 A3009 RMK A01 T02610159  RH  053%=      5-min Rain = 0
KTAS 031342Z 16011KT 26/16 A3009 RMK A01 T02600160  RH  054%=      5-min Rain = 0
KTAS 031343Z 18010KT 26/16 A3009 RMK A01 T02610161  RH  054%=      5-min Rain = 0
KTAS 031344Z 17010KT 26/16 A3009 RMK A01 T02610163  RH  054%=      5-min Rain = 0
KTAS 031345Z 18010KT 26/16 A3009 RMK A01 T02630164  RH  054%=      5-min Rain = 0
KTAS 031346Z 17011KT 26/16 A3009 RMK A01 T02630164  RH  054%=      5-min Rain = 0
KTAS 031347Z 17011KT 26/16 A3009 RMK A01 T02630163  RH  054%=      5-min Rain = 0
KTAS 031348Z 17012KT 26/16 A3009 RMK A01 T02630162  RH  054%=      5-min Rain = 0
KTAS 031349Z 16011KT 26/16 A3009 RMK A01 T02620163  RH  054%=      5-min Rain = 0
KTAS 031350Z 17013KT 26/16 A3009 RMK A01 T02630164  RH  054%=      5-min Rain = 0
KTAS 031351Z 18009KT 26/17 A3009 RMK A01 T02630165  RH  055%=      5-min Rain = 0
KTAS 031352Z 17010KT 26/17 A3009 RMK A01 T02640165  RH  054%=      5-min Rain = 0
KTAS 031353Z 17011KT 26/16 A3009 RMK A01 T02640164  RH  054%=      5-min Rain = 0
KTAS 031354Z 18012KT 26/16 A3009 RMK A01 T02640164  RH  054%=      5-min Rain = 0
KTAS 031355Z 17010KT 26/17 A3009 RMK A01 T02640165  RH  055%=      5-min Rain = 0
KTAS 031356Z 17011KT 27/17 A3009 RMK A01 T02650166  RH  055%=      5-min Rain = 0
KTAS 031357Z 17011KT 27/17 A3009 RMK A01 T02650166  RH  054%=      5-min Rain = 0
KTAS 031358Z 18010KT 27/17 A3009 RMK A01 T02650166  RH  054%=      5-min Rain = 0
KTAS 031359Z 18011KT 27/17 A3009 RMK A01 T02660167  RH  055%=      5-min Rain = 0
KTAS 031400Z 18010KT 27/17 A3009 RMK A01 T02670168  RH  054%=      5-min Rain = 0
KTAS 031401Z 17009G14KT 27/17 A3009 RMK A01 T02680168  RH  054%=      5-min Rain = 0
KTAS 031402Z 17011KT 27/17 A3009 RMK A01 T02680166  RH  054%=      5-min Rain = 0
KTAS 031403Z 18009KT 27/17 A3009 RMK A01 T02670167  RH  054%=      5-min Rain = 0
KTAS 031404Z 17008KT 27/17 A3009 RMK A01 T02690170  RH  054%=      5-min Rain = 0
KTAS 031405Z 18008KT 27/17 A3009 RMK A01 T02710170  RH  054%=      5-min Rain = 0
KTAS 031406Z 17008KT 27/17 A3009 RMK A01 T02730171  RH  054%=      5-min Rain = 0
KTAS 031407Z 17011KT 27/17 A3009 RMK A01 T02740169  RH  053%=      5-min Rain = 0
KTAS 031408Z 17011KT 27/17 A3009 RMK A01 T02720167  RH  053%=      5-min Rain = 0
KTAS 031409Z 17010KT 27/17 A3009 RMK A01 T02700167  RH  053%=      5-min Rain = 0
KTAS 031410Z 17008KT 27/17 A3009 RMK A01 T02710170  RH  054%=      5-min Rain = 0
KTAS 031411Z 18009KT 27/17 A3009 RMK A01 T02730171  RH  054%=      5-min Rain = 0
KTAS 031412Z 17011KT 27/17 A3009 RMK A01 T02730170  RH  053%=      5-min Rain = 0
KTAS 031413Z 18011KT 27/17 A3009 RMK A01 T02730171  RH  054%=      5-min Rain = 0
KTAS 031414Z 18011KT 27/17 A3009 RMK A01 T02730171  RH  054%=      5-min Rain = 0
KTAS 031415Z 19013KT 27/17 A3009 RMK A01 T02730171  RH  054%=      5-min Rain = 0
KTAS 031416Z 19013KT 27/17 A3009 RMK A01 T02720170  RH  054%=      5-min Rain = 0
KTAS 031417Z 19012KT 27/17 A3009 RMK A01 T02710169  RH  054%=      5-min Rain = 0
KTAS 031418Z 18011KT 27/17 A3009 RMK A01 T02720171  RH  054%=      5-min Rain = 0
KTAS 031419Z 18013KT 27/17 A3009 RMK A01 T02730170  RH  053%=      5-min Rain = 0
KTAS 031420Z 19011KT 27/17 A3009 RMK A01 T02730171  RH  054%=      5-min Rain = 0
KTAS 031421Z 18011KT 27/17 A3009 RMK A01 T02730170  RH  053%=      5-min Rain = 0
KTAS 031422Z 19012KT 27/17 A3009 RMK A01 T02740171  RH  054%=      5-min Rain = 0
KTAS 031423Z 17011KT 27/17 A3009 RMK A01 T02740170  RH  053%=      5-min Rain = 0
KTAS 031424Z 19010KT 27/17 A3009 RMK A01 T02740171  RH  053%=      5-min Rain = 0
KTAS 031425Z 18012KT 27/17 A3009 RMK A01 T02740170  RH  053%=      5-min Rain = 0
KTAS 031426Z 18011KT 27/17 A301 RMK A01 T02740170  RH  053%=      5-min Rain = 0
KTAS 031427Z 18010KT 27/17 A301 RMK A01 T02730170  RH  053%=      5-min Rain = 0
KTAS 031428Z 17011KT 27/17 A301 RMK A01 T02740172  RH  053%=      5-min Rain = 0
KTAS 031429Z 18011KT 28/17 A301 RMK A01 T02760172  RH  053%=      5-min Rain = 0
KTAS 031430Z 17012KT 28/17 A301 RMK A01 T02770171  RH  053%=      5-min Rain = 0
KTAS 031431Z 17013KT 28/17 A301 RMK A01 T02770171  RH  052%=      5-min Rain = 0
KTAS 031432Z 19011KT 28/17 A301 RMK A01 T02770173  RH  053%=      5-min Rain = 0
KTAS 031433Z 18011KT 28/17 A301 RMK A01 T02780172  RH  052%=      5-min Rain = 0
KTAS 031434Z 16012KT 28/17 A301 RMK A01 T02770171  RH  052%=      5-min Rain = 0
KTAS 031435Z 18011KT 28/17 A301 RMK A01 T02770171  RH  052%=      5-min Rain = 0
KTAS 031436Z 19011KT 28/17 A301 RMK A01 T02770171  RH  053%=      5-min Rain = 0
KTAS 031437Z 19011KT 28/17 A301 RMK A01 T02770172  RH  053%=      5-min Rain = 0
KTAS 031438Z 18011KT 28/17 A301 RMK A01 T02780174  RH  053%=      5-min Rain = 0
KTAS 031439Z 17009KT 28/17 A301 RMK A01 T02800174  RH  052%=      5-min Rain = 0
KTAS 031440Z 17010KT 28/18 A301 RMK A01 T02810175  RH  052%=      5-min Rain = 0
KTAS 031441Z 17012KT 28/17 A301 RMK A01 T02810173  RH  052%=      5-min Rain = 0
KTAS 031442Z 17012KT 28/17 A301 RMK A01 T02810172  RH  052%=      5-min Rain = 0
KTAS 031443Z 18012KT 28/17 A301 RMK A01 T02790171  RH  052%=      5-min Rain = 0
KTAS 031444Z 18013KT 28/17 A301 RMK A01 T02760171  RH  052%=      5-min Rain = 0
KTAS 031445Z 18011KT 28/17 A301 RMK A01 T02770174  RH  053%=      5-min Rain = 0
KTAS 031446Z 17010KT 28/17 A301 RMK A01 T02790174  RH  053%=      5-min Rain = 0
KTAS 031447Z 18013KT 28/17 A301 RMK A01 T02800173  RH  052%=      5-min Rain = 0
KTAS 031448Z 18014KT 28/17 A301 RMK A01 T02790172  RH  052%=      5-min Rain = 0
KTAS 031449Z 18012KT 28/17 A301 RMK A01 T02790172  RH  052%=      5-min Rain = 0
KTAS 031450Z 17010KT 28/17 A301 RMK A01 T02780173  RH  053%=      5-min Rain = 0
KTAS 031451Z 19011KT 28/18 A301 RMK A01 T02800176  RH  053%=      5-min Rain = 0
KTAS 031452Z 19012KT 28/17 A301 RMK A01 T02810174  RH  052%=      5-min Rain = 0
KTAS 031453Z 18014KT 28/17 A301 RMK A01 T02800173  RH  052%=      5-min Rain = 0
KTAS 031454Z 18012KT 28/17 A301 RMK A01 T02800173  RH  052%=      5-min Rain = 0
KTAS 031455Z 18011KT 28/17 A301 RMK A01 T02800174  RH  052%=      5-min Rain = 0
KTAS 031456Z 19011KT 28/17 A301 RMK A01 T02810174  RH  052%=      5-min Rain = 0
KTAS 031457Z 19012KT 28/18 A301 RMK A01 T02820176  RH  052%=      5-min Rain = 0
KTAS 031458Z 18013KT 28/17 A301 RMK A01 T02820173  RH  052%=      5-min Rain = 0
KTAS 031459Z 18012KT 28/17 A301 RMK A01 T02820173  RH  052%=      5-min Rain = 0
KTAS 031500Z 18013KT 28/17 A301 RMK A01 T02820173  RH  051%=      5-min Rain = 0
KTAS 031501Z 19011KT 28/17 A301 RMK A01 T02820173  RH  052%=      5-min Rain = 0
KTAS 031502Z 20011KT 28/18 A301 RMK A01 T02830175  RH  052%=      5-min Rain = 0
KTAS 031503Z 20011KT 28/18 A301 RMK A01 T02840175  RH  052%=      5-min Rain = 0
KTAS 031504Z 18012KT 28/17 A301 RMK A01 T02840174  RH  052%=      5-min Rain = 0
KTAS 031505Z 18011KT 29/18 A301 RMK A01 T02850175  RH  051%=      5-min Rain = 0
KTAS 031506Z 18012KT 29/17 A301 RMK A01 T02860174  RH  051%=      5-min Rain = 0
KTAS 031507Z 18011KT 29/17 A301 RMK A01 T02860174  RH  051%=      5-min Rain = 0
KTAS 031508Z 19010KT 29/18 A301 RMK A01 T02850175  RH  051%=      5-min Rain = 0
KTAS 031509Z 19010KT 29/18 A301 RMK A01 T02850175  RH  051%=      5-min Rain = 0
KTAS 031510Z 18010KT 28/18 A301 RMK A01 T02840177  RH  052%=      5-min Rain = 0
KTAS 031511Z 17011KT 29/18 A301 RMK A01 T02880176  RH  051%=      5-min Rain = 0
KTAS 031512Z 17009KT 29/17 A301 RMK A01 T02870173  RH  050%=      5-min Rain = 0
KTAS 031513Z 18010KT 29/17 A301 RMK A01 T02890174  RH  050%=      5-min Rain = 0
KTAS 031514Z 18009KT 29/17 A301 RMK A01 T02870171  RH  050%=      5-min Rain = 0
KTAS 031515Z 18008KT 29/18 A301 RMK A01 T02870175  RH  051%=      5-min Rain = 0
KTAS 031516Z 19009KT 29/18 A301 RMK A01 T02900176  RH  050%=      5-min Rain = 0
KTAS 031517Z 18008KT 29/18 A301 RMK A01 T02910176  RH  050%=      5-min Rain = 0
KTAS 031518Z 19011KT 29/18 A301 RMK A01 T02920175  RH  049%=      5-min Rain = 0
KTAS 031519Z 17011KT 29/17 A3011 RMK A01 T02890172  RH  049%=      5-min Rain = 0
KTAS 031520Z 18011KT 29/17 A3011 RMK A01 T02880171  RH  049%=      5-min Rain = 0
KTAS 031521Z 19011KT 29/17 A3011 RMK A01 T02870172  RH  050%=      5-min Rain = 0
KTAS 031522Z 17010KT 29/17 A3011 RMK A01 T02880173  RH  050%=      5-min Rain = 0
KTAS 031523Z 18009KT 29/18 A3011 RMK A01 T02900176  RH  050%=      5-min Rain = 0
KTAS 031524Z 19010KT 29/18 A301 RMK A01 T02920175  RH  049%=      5-min Rain = 0
KTAS 031525Z 18012KT 29/18 A301 RMK A01 T02920175  RH  049%=      5-min Rain = 0
KTAS 031526Z 19011KT 29/18 A3011 RMK A01 T02900175  RH  050%=      5-min Rain = 0
KTAS 031527Z 18010KT 29/18 A3011 RMK A01 T02890176  RH  050%=      5-min Rain = 0
KTAS 031528Z 19008KT 29/18 A301 RMK A01 T02900177  RH  050%=      5-min Rain = 0
KTAS 031529Z 17009KT 29/18 A301 RMK A01 T02910178  RH  050%=      5-min Rain = 0
KTAS 031530Z 18011KT 29/18 A3011 RMK A01 T02940178  RH  050%=      5-min Rain = 0
KTAS 031531Z 18008KT 30/18 A3011 RMK A01 T02950177  RH  049%=      5-min Rain = 0
KTAS 031532Z 18012KT 30/18 A301 RMK A01 T02960176  RH  049%=      5-min Rain = 0
KTAS 031533Z 18011KT 30/17 A301 RMK A01 T02950174  RH  048%=      5-min Rain = 0
KTAS 031534Z 19011KT 30/17 A3011 RMK A01 T02950174  RH  048%=      5-min Rain = 0
KTAS 031535Z 20009KT 29/18 A301 RMK A01 T02940175  RH  049%=      5-min Rain = 0
KTAS 031536Z 18008KT 29/18 A3011 RMK A01 T02940176  RH  049%=      5-min Rain = 0
KTAS 031537Z 17009KT 30/18 A3011 RMK A01 T02950175  RH  048%=      5-min Rain = 0
KTAS 031538Z 16008KT 30/18 A3011 RMK A01 T02960175  RH  048%=      5-min Rain = 0
KTAS 031539Z 18009KT 30/17 A3011 RMK A01 T02960174  RH  048%=      5-min Rain = 0
KTAS 031540Z 17007KT 30/18 A3011 RMK A01 T02970177  RH  049%=      5-min Rain = 0
KTAS 031541Z 20006KT 30/18 A3011 RMK A01 T02990179  RH  049%=      5-min Rain = 0
KTAS 031542Z 20006KT 30/18 A3011 RMK A01 T02990178  RH  048%=      5-min Rain = 0
KTAS 031543Z 18010KT 30/18 A3011 RMK A01 T03010177  RH  047%=      5-min Rain = 0
KTAS 031544Z 18008KT 30/17 A3011 RMK A01 T02990174  RH  047%=      5-min Rain = 0
KTAS 031545Z 19008KT 30/18 A3011 RMK A01 T02970175  RH  048%=      5-min Rain = 0
KTAS 031546Z 17009KT 30/18 A3011 RMK A01 T02970175  RH  048%=      5-min Rain = 0
KTAS 031547Z 17010KT 30/18 A3011 RMK A01 T02980176  RH  048%=      5-min Rain = 0
KTAS 031548Z 17009KT 30/17 A3011 RMK A01 T02970173  RH  047%=      5-min Rain = 0
KTAS 031549Z 18010KT 30/18 A3011 RMK A01 T02980175  RH  048%=      5-min Rain = 0
KTAS 031550Z 19010KT 30/18 A3011 RMK A01 T02980175  RH  048%=      5-min Rain = 0
KTAS 031551Z 18007KT 30/18 A3011 RMK A01 T02980177  RH  048%=      5-min Rain = 0
KTAS 031552Z 17010KT 30/18 A3011 RMK A01 T02990176  RH  048%=      5-min Rain = 0
KTAS 031553Z 18009KT 30/18 A3011 RMK A01 T02990175  RH  047%=      5-min Rain = 0
KTAS 031554Z 18010KT 30/18 A3011 RMK A01 T02990175  RH  047%=      5-min Rain = 0
KTAS 031555Z 17009KT 30/17 A3011 RMK A01 T03000171  RH  046%=      5-min Rain = 0
KTAS 031556Z 18007KT 30/18 A3011 RMK A01 T03020177  RH  047%=      5-min Rain = 0
KTAS 031557Z 20010KT 30/18 A3011 RMK A01 T03030179  RH  047%=      5-min Rain = 0
KTAS 031558Z 19010KT 30/18 A3011 RMK A01 T03020178  RH  047%=      5-min Rain = 0
KTAS 031559Z 19008KT 30/18 A301 RMK A01 T03020180  RH  048%=      5-min Rain = 0
KTAS 031600Z 18011KT 31/18 A301 RMK A01 T03050179  RH  047%=      5-min Rain = 0
KTAS 031601Z 16010KT 31/17 A301 RMK A01 T03060173  RH  045%=      5-min Rain = 0
KTAS 031602Z 15008KT 30/17 A301 RMK A01 T03040169  RH  044%=      5-min Rain = 0
KTAS 031603Z 16010KT 30/18 A301 RMK A01 T03040176  RH  046%=      5-min Rain = 0
KTAS 031604Z 17008KT 31/18 A301 RMK A01 T03050178  RH  046%=      5-min Rain = 0
KTAS 031605Z 17010KT 31/18 A3011 RMK A01 T03050176  RH  046%=      5-min Rain = 0
KTAS 031606Z 16010KT 30/17 A3011 RMK A01 T03040173  RH  045%=      5-min Rain = 0
KTAS 031607Z 17010KT 31/17 A3011 RMK A01 T03050173  RH  045%=      5-min Rain = 0
KTAS 031608Z 17010KT 31/17 A3011 RMK A01 T03050172  RH  045%=      5-min Rain = 0
KTAS 031609Z 18010KT 31/17 A3011 RMK A01 T03060174  RH  045%=      5-min Rain = 0
KTAS 031610Z 18008KT 31/17 A3011 RMK A01 T03080172  RH  044%=      5-min Rain = 0
KTAS 031611Z 17007KT 31/17 A3011 RMK A01 T03070170  RH  044%=      5-min Rain = 0
KTAS 031612Z 17009KT 31/17 A301 RMK A01 T03060172  RH  045%=      5-min Rain = 0
KTAS 031613Z 16010KT 31/17 A301 RMK A01 T03090174  RH  044%=      5-min Rain = 0
KTAS 031614Z 16009KT 31/17 A3011 RMK A01 T03100174  RH  044%=      5-min Rain = 0
KTAS 031615Z 15009KT 31/17 A301 RMK A01 T03100173  RH  044%=      5-min Rain = 0
KTAS 031616Z 17007G12KT 31/17 A301 RMK A01 T03100173  RH  044%=      5-min Rain = 0
KTAS 031617Z 17011KT 31/17 A3011 RMK A01 T03130174  RH  043%=      5-min Rain = 0
KTAS 031618Z 18009KT 32/17 A3011 RMK A01 T03150170  RH  042%=      5-min Rain = 0
KTAS 031619Z 17009KT 31/17 A3011 RMK A01 T03130171  RH  043%=      5-min Rain = 0
KTAS 031620Z 17008KT 31/17 A3011 RMK A01 T03110172  RH  044%=      5-min Rain = 0
KTAS 031621Z 17006KT 31/17 A301 RMK A01 T03080172  RH  044%=      5-min Rain = 0
KTAS 031622Z 17007KT 31/18 A301 RMK A01 T03090176  RH  045%=      5-min Rain = 0
KTAS 031623Z 18008KT 31/18 A301 RMK A01 T03130178  RH  045%=      5-min Rain = 0
KTAS 031624Z 16004KT 32/18 A301 RMK A01 T03150180  RH  044%=      5-min Rain = 0
KTAS 031625Z 15005KT 32/18 A301 RMK A01 T03150176  RH  044%=      5-min Rain = 0
KTAS 031626Z 15008KT 32/18 A301 RMK A01 T03150178  RH  044%=      5-min Rain = 0
KTAS 031627Z 17011KT 32/18 A301 RMK A01 T03150177  RH  044%=      5-min Rain = 0
KTAS 031628Z 18010KT 32/17 A301 RMK A01 T03150174  RH  043%=      5-min Rain = 0
KTAS 031629Z 18009KT 31/18 A3011 RMK A01 T03140177  RH  044%=      5-min Rain = 0
KTAS 031630Z 17009KT 31/17 A3011 RMK A01 T03140173  RH  043%=      5-min Rain = 0
KTAS 031631Z 16008KT 31/18 A3011 RMK A01 T03120175  RH  044%=      5-min Rain = 0
KTAS 031632Z 16007KT 31/18 A3011 RMK A01 T03130177  RH  044%=      5-min Rain = 0
KTAS 031633Z 17006KT 31/18 A3011 RMK A01 T03140178  RH  044%=      5-min Rain = 0
KTAS 031634Z 16003KT 32/18 A3011 RMK A01 T03160181  RH  044%=      5-min Rain = 0
KTAS 031635Z 17005KT 32/18 A3011 RMK A01 T03180178  RH  043%=      5-min Rain = 0
KTAS 031636Z 13006KT 32/18 A3011 RMK A01 T03180180  RH  044%=      5-min Rain = 0
KTAS 031637Z 13008KT 32/18 A301 RMK A01 T03190176  RH  043%=      5-min Rain = 0
KTAS 031638Z 14008KT 32/18 A301 RMK A01 T03180177  RH  043%=      5-min Rain = 0
KTAS 031639Z 16008KT 32/18 A3011 RMK A01 T03200182  RH  044%=      5-min Rain = 0
KTAS 031640Z 16006KT 32/18 A3011 RMK A01 T03220180  RH  043%=      5-min Rain = 0
KTAS 031641Z 14007KT 32/18 A301 RMK A01 T03220176  RH  042%=      5-min Rain = 0
KTAS 031642Z 15005KT 32/18 A301 RMK A01 T03200180  RH  043%=      5-min Rain = 0
KTAS 031643Z 15005KT 32/18 A301 RMK A01 T03220181  RH  043%=      5-min Rain = 0
KTAS 031644Z 14004KT 32/18 A301 RMK A01 T03220179  RH  043%=      5-min Rain = 0
KTAS 031645Z 14007KT 32/18 A301 RMK A01 T03220179  RH  043%=      5-min Rain = 0
KTAS 031646Z 14008KT 32/18 A3011 RMK A01 T03210176  RH  042%=      5-min Rain = 0
KTAS 031647Z 15007KT 32/17 A3011 RMK A01 T03210174  RH  042%=      5-min Rain = 0
KTAS 031648Z 15004KT 32/17 A3011 RMK A01 T03180172  RH  042%=      5-min Rain = 0
KTAS 031649Z 14004KT 31/17 A3011 RMK A01 T03140171  RH  042%=      5-min Rain = 0
KTAS 031650Z 17007KT 31/17 A3011 RMK A01 T03140172  RH  043%=      5-min Rain = 0
KTAS 031651Z 16008KT 32/18 A3011 RMK A01 T03160175  RH  043%=      5-min Rain = 0
KTAS 031652Z 16010KT 32/17 A3011 RMK A01 T03190171  RH  041%=      5-min Rain = 0
KTAS 031653Z 14007G12KT 32/17 A3011 RMK A01 T03180174  RH  042%=      5-min Rain = 0
KTAS 031654Z 13003KT 32/17 A3011 RMK A01 T03150174  RH  043%=      5-min Rain = 0
KTAS 031655Z 14002KT 32/17 A3011 RMK A01 T03160174  RH  043%=      5-min Rain = 0
KTAS 031656Z 15006KT 32/17 A3011 RMK A01 T03160173  RH  042%=      5-min Rain = 0
KTAS 031657Z 17009KT 32/18 A3011 RMK A01 T03190175  RH  042%=      5-min Rain = 0
KTAS 031658Z 18007KT 32/17 A3011 RMK A01 T03210173  RH  041%=      5-min Rain = 0
KTAS 031659Z 17010KT 32/17 A3011 RMK A01 T03210174  RH  042%=      5-min Rain = 0
KTAS 031700Z 16009KT 32/17 A3011 RMK A01 T03210172  RH  041%=      5-min Rain = 0
KTAS 031701Z 15006KT 32/18 A3011 RMK A01 T03230178  RH  042%=      5-min Rain = 0
KTAS 031702Z 16007KT 32/18 A3011 RMK A01 T03240176  RH  041%=      5-min Rain = 0
KTAS 031703Z 15007KT 32/17 A3011 RMK A01 T03240173  RH  041%=      5-min Rain = 0
KTAS 031704Z 15008KT 33/17 A3011 RMK A01 T03250174  RH  041%=      5-min Rain = 0
KTAS 031705Z 15006KT 33/17 A3011 RMK A01 T03250172  RH  040%=      5-min Rain = 0
KTAS 031706Z 15009G15KT 32/17 A3011 RMK A01 T03240170  RH  040%=      5-min Rain = 0
KTAS 031707Z 15011KT 33/17 A3011 RMK A01 T03260170  RH  039%=      5-min Rain = 0
KTAS 031708Z 16008KT 32/16 A3011 RMK A01 T03240164  RH  038%=      5-min Rain = 0
KTAS 031709Z 13005KT 32/17 A3011 RMK A01 T03220165  RH  039%=      5-min Rain = 0
KTAS 031710Z 12007KT 32/17 A3011 RMK A01 T03230168  RH  039%=      5-min Rain = 0
KTAS 031711Z 14008KT 33/17 A3011 RMK A01 T03250170  RH  040%=      5-min Rain = 0
KTAS 031712Z 15009KT 33/16 A3011 RMK A01 T03270163  RH  037%=      5-min Rain = 0
KTAS 031713Z 17008KT 33/17 A3011 RMK A01 T03290165  RH  037%=      5-min Rain = 0
KTAS 031714Z 15006KT 33/17 A3011 RMK A01 T03290165  RH  038%=      5-min Rain = 0
KTAS 031715Z 18008KT 33/17 A3011 RMK A01 T03270167  RH  038%=      5-min Rain = 0
KTAS 031716Z 18005KT 32/17 A301 RMK A01 T03230170  RH  040%=      5-min Rain = 0
KTAS 031717Z 17009G14KT 32/17 A301 RMK A01 T03220172  RH  041%=      5-min Rain = 0
KTAS 031718Z 17005KT 32/17 A3011 RMK A01 T03210173  RH  041%=      5-min Rain = 0
KTAS 031719Z 19010KT 32/17 A301 RMK A01 T03230173  RH  041%=      5-min Rain = 0
KTAS 031720Z 19009KT 32/17 A301 RMK A01 T03210174  RH  042%=      5-min Rain = 0
KTAS 031721Z 18008KT 32/17 A301 RMK A01 T03230174  RH  041%=      5-min Rain = 0
KTAS 031722Z 16012KT 32/17 A3011 RMK A01 T03230174  RH  041%=      5-min Rain = 0
KTAS 031723Z 15010KT 32/17 A3011 RMK A01 T03230168  RH  039%=      5-min Rain = 0
KTAS 031724Z 16011KT 32/16 A3011 RMK A01 T03220164  RH  039%=      5-min Rain = 0
KTAS 031725Z 15010KT 32/17 A3011 RMK A01 T03240167  RH  039%=      5-min Rain = 0
KTAS 031726Z 16010KT 33/17 A3011 RMK A01 T03270166  RH  038%=      5-min Rain = 0
KTAS 031727Z 17007KT 33/16 A3011 RMK A01 T03270164  RH  038%=      5-min Rain = 0
KTAS 031728Z 17008KT 33/17 A301 RMK A01 T03260166  RH  038%=      5-min Rain = 0
KTAS 031729Z 15007KT 33/17 A301 RMK A01 T03250166  RH  038%=      5-min Rain = 0
KTAS 031730Z 12007KT 33/17 A301 RMK A01 T03270169  RH  039%=      5-min Rain = 0
KTAS 031731Z 14007KT 33/17 A301 RMK A01 T03300170  RH  038%=      5-min Rain = 0
KTAS 031732Z 15009KT 33/17 A3011 RMK A01 T03330168  RH  037%=      5-min Rain = 0
KTAS 031733Z 16008KT 33/17 A3011 RMK A01 T03300165  RH  037%=      5-min Rain = 0
KTAS 031734Z 16009KT 33/17 A3011 RMK A01 T03280165  RH  038%=      5-min Rain = 0
KTAS 031735Z 15004KT 33/17 A3011 RMK A01 T03270165  RH  038%=      5-min Rain = 0
KTAS 031736Z 17004KT 33/17 A3011 RMK A01 T03280166  RH  038%=      5-min Rain = 0
KTAS 031737Z 19007KT 33/16 A301 RMK A01 T03290162  RH  037%=      5-min Rain = 0
KTAS 031738Z 17006KT 33/16 A301 RMK A01 T03260158  RH  036%=      5-min Rain = 0
KTAS 031739Z 17010KT 33/17 A301 RMK A01 T03270165  RH  038%=      5-min Rain = 0
KTAS 031740Z 17009KT 33/17 A301 RMK A01 T03320168  RH  037%=      5-min Rain = 0
KTAS 031741Z 17007KT 33/17 A301 RMK A01 T03310168  RH  038%=      5-min Rain = 0
KTAS 031742Z 17007KT 33/17 A301 RMK A01 T03290171  RH  039%=      5-min Rain = 0
KTAS 031743Z 15007KT 33/17 A301 RMK A01 T03290173  RH  039%=      5-min Rain = 0
KTAS 031744Z 15006KT 33/18 A301 RMK A01 T03290175  RH  040%=      5-min Rain = 0
KTAS 031745Z 19006KT 33/17 A301 RMK A01 T03300174  RH  039%=      5-min Rain = 0
KTAS 031746Z 20007KT 33/18 A301 RMK A01 T03310176  RH  040%=      5-min Rain = 0
KTAS 031747Z 15011KT 33/17 A301 RMK A01 T03340174  RH  039%=      5-min Rain = 0
KTAS 031748Z 13008G13KT 34/17 A301 RMK A01 T03360170  RH  037%=      5-min Rain = 0
KTAS 031749Z 14009G14KT 34/17 A301 RMK A01 T03360165  RH  036%=      5-min Rain = 0
KTAS 031750Z 16009G14KT 33/17 A301 RMK A01 T03330166  RH  037%=      5-min Rain = 0
KTAS 031751Z 16013KT 34/16 A301 RMK A01 T03360163  RH  036%=      5-min Rain = 0
KTAS 031752Z 17010KT 34/16 A301 RMK A01 T03360160  RH  035%=      5-min Rain = 0
KTAS 031753Z 15007KT 34/16 A301 RMK A01 T03350157  RH  035%=      5-min Rain = 0
KTAS 031754Z 16008KT 33/16 A301 RMK A01 T03330161  RH  036%=      5-min Rain = 0
KTAS 031755Z 16007KT 33/16 A301 RMK A01 T03300163  RH  037%=      5-min Rain = 0
KTAS 031756Z 18005KT 33/17 A301 RMK A01 T03310166  RH  037%=      5-min Rain = 0
KTAS 031757Z 18006KT 33/16 A301 RMK A01 T03320164  RH  037%=      5-min Rain = 0
KTAS 031758Z 16009G17KT 33/17 A301 RMK A01 T03310169  RH  038%=      5-min Rain = 0
KTAS 031759Z 16016KT 33/17 A301 RMK A01 T03330166  RH  037%=      5-min Rain = 0
KTAS 031800Z 16012KT 33/16 A301 RMK A01 T03300164  RH  037%=      5-min Rain = 0
KTAS 031801Z 16011KT 33/17 A301 RMK A01 T03300165  RH  037%=      5-min Rain = 0
KTAS 031802Z 15006KT 33/16 A301 RMK A01 T03300161  RH  036%=      5-min Rain = 0
KTAS 031803Z 15004KT 33/16 A301 RMK A01 T03280159  RH  036%=      5-min Rain = 0
KTAS 031804Z 13003KT 33/16 A301 RMK A01 T03280161  RH  037%=      5-min Rain = 0
KTAS 031805Z 14006KT 33/16 A301 RMK A01 T03290164  RH  037%=      5-min Rain = 0
KTAS 031806Z 18011KT 33/16 A301 RMK A01 T03320164  RH  036%=      5-min Rain = 0
KTAS 031807Z 19009KT 33/16 A301 RMK A01 T03340159  RH  035%=      5-min Rain = 0
KTAS 031808Z 18008KT 33/16 A301 RMK A01 T03340160  RH  035%=      5-min Rain = 0
KTAS 031809Z 16013KT 34/16 A301 RMK A01 T03350164  RH  036%=      5-min Rain = 0
KTAS 031810Z 16013KT 34/16 A301 RMK A01 T03360162  RH  035%=      5-min Rain = 0
KTAS 031811Z 17012KT 33/16 A301 RMK A01 T03340160  RH  035%=      5-min Rain = 0
KTAS 031812Z 17009G14KT 33/16 A301 RMK A01 T03310159  RH  036%=      5-min Rain = 0
KTAS 031813Z 16003KT 33/16 A301 RMK A01 T03300158  RH  036%=      5-min Rain = 0
KTAS 031814Z 14002KT 33/16 A3009 RMK A01 T03300157  RH  035%=      5-min Rain = 0
KTAS 031815Z 19004KT 33/16 A3009 RMK A01 T03300158  RH  036%=      5-min Rain = 0
KTAS 031816Z 19010KT 33/16 A3009 RMK A01 T03300158  RH  036%=      5-min Rain = 0
KTAS 031817Z 17009G14KT 33/16 A3009 RMK A01 T03330159  RH  035%=      5-min Rain = 0
KTAS 031818Z 13012KT 34/14 A3009 RMK A01 T03360143  RH  031%=      5-min Rain = 0
KTAS 031819Z 10009KT 34/13 A3009 RMK A01 T03350131  RH  029%=      5-min Rain = 0
KTAS 031820Z 13011G17KT 33/14 A3009 RMK A01 T03330136  RH  030%=      5-min Rain = 0
KTAS 031821Z 11009G14KT 34/15 A3009 RMK A01 T03360150  RH  033%=      5-min Rain = 0
KTAS 031822Z 11007KT 34/15 A3009 RMK A01 T03400151  RH  032%=      5-min Rain = 0
KTAS 031823Z 13007KT 34/15 A3009 RMK A01 T03410154  RH  033%=      5-min Rain = 0
KTAS 031824Z 17009G14KT 34/15 A3009 RMK A01 T03390154  RH  033%=      5-min Rain = 0
KTAS 031825Z 17011KT 34/15 A3009 RMK A01 T03390149  RH  032%=      5-min Rain = 0
KTAS 031826Z 15009G14KT 34/15 A3009 RMK A01 T03410151  RH  032%=      5-min Rain = 0
KTAS 031827Z 13008KT 34/15 A3009 RMK A01 T03420148  RH  031%=      5-min Rain = 0
KTAS 031828Z 14007KT 34/16 A3009 RMK A01 T03430155  RH  032%=      5-min Rain = 0
KTAS 031829Z 13006KT 35/15 A3009 RMK A01 T03450150  RH  031%=      5-min Rain = 0
KTAS 031830Z 13005KT 34/16 A3009 RMK A01 T03430155  RH  033%=      5-min Rain = 0
KTAS 031831Z 13008G13KT 34/15 A3009 RMK A01 T03400150  RH  032%=      5-min Rain = 0
KTAS 031832Z 11011KT 33/15 A3009 RMK A01 T03330145  RH  032%=      5-min Rain = 0
KTAS 031833Z 11008KT 33/14 A3009 RMK A01 T03310144  RH  032%=      5-min Rain = 0
KTAS 031834Z 13015KT 33/15 A3009 RMK A01 T03340146  RH  032%=      5-min Rain = 0
KTAS 031835Z 13010KT 33/15 A3009 RMK A01 T03330145  RH  032%=      5-min Rain = 0
KTAS 031836Z 14010KT 34/15 A3008 RMK A01 T03350150  RH  033%=      5-min Rain = 0
KTAS 031837Z 11009KT 34/15 A3008 RMK A01 T03380154  RH  033%=      5-min Rain = 0
KTAS 031838Z 10005KT 34/15 A3009 RMK A01 T03410153  RH  032%=      5-min Rain = 0
KTAS 031839Z 12005KT 34/15 A3008 RMK A01 T03410150  RH  032%=      5-min Rain = 0
KTAS 031840Z 14009G16KT 34/15 A3008 RMK A01 T03410151  RH  032%=      5-min Rain = 0
KTAS 031841Z 15015KT 34/14 A3008 RMK A01 T03430144  RH  030%=      5-min Rain = 0
KTAS 031842Z 16012KT 34/14 A3009 RMK A01 T03420135  RH  029%=      5-min Rain = 0
KTAS 031843Z 15008KT 34/13 A3009 RMK A01 T03430128  RH  027%=      5-min Rain = 0
KTAS 031844Z 15008KT 34/13 A3008 RMK A01 T03420130  RH  028%=      5-min Rain = 0
KTAS 031845Z 16008KT 34/14 A3009 RMK A01 T03440142  RH  030%=      5-min Rain = 0
KTAS 031846Z 15006KT 34/14 A3008 RMK A01 T03430144  RH  030%=      5-min Rain = 0
KTAS 031847Z 14006KT 34/14 A3008 RMK A01 T03430142  RH  030%=      5-min Rain = 0
KTAS 031848Z 14012KT 34/14 A3008 RMK A01 T03430140  RH  029%=      5-min Rain = 0
KTAS 031849Z 13010KT 34/13 A3008 RMK A01 T03430133  RH  028%=      5-min Rain = 0
KTAS 031850Z 14008KT 34/13 A3008 RMK A01 T03430134  RH  028%=      5-min Rain = 0
KTAS 031851Z 12007KT 34/14 A3008 RMK A01 T03390142  RH  030%=      5-min Rain = 0
KTAS 031852Z 13005G10KT 34/14 A3008 RMK A01 T03390142  RH  031%=      5-min Rain = 0
KTAS 031853Z 13006G11KT 34/14 A3008 RMK A01 T03390144  RH  031%=      5-min Rain = 0
KTAS 031854Z 10011KT 34/15 A3008 RMK A01 T03410151  RH  032%=      5-min Rain = 0
KTAS 031855Z 10006KT 34/15 A3008 RMK A01 T03420147  RH  031%=      5-min Rain = 0
KTAS 031856Z 13010G15KT 34/15 A3008 RMK A01 T03390145  RH  031%=      5-min Rain = 0
KTAS 031857Z 16011KT 34/13 A3008 RMK A01 T03390128  RH  028%=      5-min Rain = 0
KTAS 031858Z 16011KT 34/13 A3008 RMK A01 T03410129  RH  028%=      5-min Rain = 0
KTAS 031859Z 14008KT 34/13 A3008 RMK A01 T03420132  RH  028%=      5-min Rain = 0
KTAS 031900Z 16005KT 35/14 A3008 RMK A01 T03450137  RH  029%=      5-min Rain = 0
KTAS 031901Z 15012KT 35/14 A3008 RMK A01 T03490142  RH  029%=      5-min Rain = 0
KTAS 031902Z 15008G14KT 35/14 A3008 RMK A01 T03490143  RH  029%=      5-min Rain = 0
KTAS 031903Z 18005KT 35/14 A3008 RMK A01 T03450141  RH  029%=      5-min Rain = 0
KTAS 031904Z 18005KT 34/14 A3008 RMK A01 T03430141  RH  030%=      5-min Rain = 0
KTAS 031905Z 14006KT 34/15 A3007 RMK A01 T03400145  RH  031%=      5-min Rain = 0
KTAS 031906Z 12008KT 34/15 A3008 RMK A01 T03440145  RH  030%=      5-min Rain = 0
KTAS 031907Z 11004KT 34/14 A3008 RMK A01 T03420137  RH  029%=      5-min Rain = 0
KTAS 031908Z 11005KT 34/14 A3008 RMK A01 T03420141  RH  030%=      5-min Rain = 0
KTAS 031909Z 13011G17KT 34/14 A3008 RMK A01 T03420141  RH  030%=      5-min Rain = 0
KTAS 031910Z 13009G14KT 34/14 A3007 RMK A01 T03410141  RH  030%=      5-min Rain = 0
KTAS 031911Z 14013G18KT 34/14 A3007 RMK A01 T03400140  RH  030%=      5-min Rain = 0
KTAS 031912Z 12013KT 34/14 A3007 RMK A01 T03400141  RH  030%=      5-min Rain = 0
KTAS 031913Z 10008KT 34/14 A3008 RMK A01 T03380141  RH  030%=      5-min Rain = 0
KTAS 031914Z 12008KT 34/14 A3008 RMK A01 T03360141  RH  031%=      5-min Rain = 0
KTAS 031915Z 15006KT 33/14 A3008 RMK A01 T03330136  RH  030%=      5-min Rain = 0
KTAS 031916Z 16011G17KT 33/14 A3007 RMK A01 T03330135  RH  030%=      5-min Rain = 0
KTAS 031917Z 16012KT 34/13 A3007 RMK A01 T03370132  RH  029%=      5-min Rain = 0
KTAS 031918Z 15009KT 34/13 A3008 RMK A01 T03420129  RH  028%=      5-min Rain = 0
KTAS 031919Z 14005KT 34/13 A3008 RMK A01 T03430125  RH  027%=      5-min Rain = 0
KTAS 031920Z 13009KT 34/13 A3007 RMK A01 T03440132  RH  028%=      5-min Rain = 0
KTAS 031921Z 16009KT 34/14 A3007 RMK A01 T03440136  RH  029%=      5-min Rain = 0
KTAS 031922Z 17009KT 35/14 A3007 RMK A01 T03460136  RH  028%=      5-min Rain = 0
KTAS 031923Z 18006KT 35/13 A3007 RMK A01 T03450130  RH  027%=      5-min Rain = 0
KTAS 031924Z 15006KT 34/13 A3007 RMK A01 T03400133  RH  029%=      5-min Rain = 0
KTAS 031925Z 15006KT 34/15 A3007 RMK A01 T03380147  RH  032%=      5-min Rain = 0
KTAS 031926Z 14006KT 34/14 A3007 RMK A01 T03350143  RH  032%=      5-min Rain = 0
KTAS 031927Z 11008KT 33/15 A3007 RMK A01 T03320149  RH  033%=      5-min Rain = 0
KTAS 031928Z 11007KT 33/15 A3007 RMK A01 T03330149  RH  033%=      5-min Rain = 0
KTAS 031929Z 12011G17KT 34/15 A3007 RMK A01 T03360150  RH  033%=      5-min Rain = 0
KTAS 031930Z 16009KT 34/15 A3007 RMK A01 T03400146  RH  031%=      5-min Rain = 0
KTAS 031931Z 14011KT 35/15 A3007 RMK A01 T03450149  RH  031%=      5-min Rain = 0
KTAS 031932Z 14011KT 35/15 A3007 RMK A01 T03500149  RH  030%=      5-min Rain = 0
KTAS 031933Z 14010KT 35/15 A3007 RMK A01 T03530147  RH  029%=      5-min Rain = 0
KTAS 031934Z 11010KT 35/14 A3007 RMK A01 T03490142  RH  029%=      5-min Rain = 0
KTAS 031935Z 09010KT 35/14 A3007 RMK A01 T03460138  RH  029%=      5-min Rain = 0
KTAS 031936Z 12007KT 34/14 A3007 RMK A01 T03430137  RH  029%=      5-min Rain = 0
KTAS 031937Z 15006KT 34/14 A3007 RMK A01 T03430138  RH  029%=      5-min Rain = 0
KTAS 031938Z 13007KT 34/14 A3006 RMK A01 T03420137  RH  029%=      5-min Rain = 0
KTAS 031939Z 13005KT 34/14 A3006 RMK A01 T03400138  RH  030%=      5-min Rain = 0
KTAS 031940Z 12007KT 34/14 A3006 RMK A01 T03420142  RH  030%=      5-min Rain = 0
KTAS 031941Z 13009KT 34/14 A3006 RMK A01 T03440143  RH  030%=      5-min Rain = 0
KTAS 031942Z 11008KT 35/15 A3006 RMK A01 T03460145  RH  030%=      5-min Rain = 0
KTAS 031943Z 13010KT 35/15 A3006 RMK A01 T03480148  RH  030%=      5-min Rain = 0
KTAS 031944Z 12012KT 35/15 A3006 RMK A01 T03500147  RH  030%=      5-min Rain = 0
KTAS 031945Z 15010KT 35/14 A3006 RMK A01 T03480144  RH  029%=      5-min Rain = 0
KTAS 031946Z 15007KT 35/15 A3006 RMK A01 T03460145  RH  030%=      5-min Rain = 0
KTAS 031947Z 14006KT 35/15 A3006 RMK A01 T03480148  RH  030%=      5-min Rain = 0
KTAS 031948Z 12006KT 35/15 A3006 RMK A01 T03490147  RH  030%=      5-min Rain = 0
KTAS 031949Z 10007KT 35/14 A3006 RMK A01 T03460142  RH  029%=      5-min Rain = 0
KTAS 031950Z 11006KT 34/14 A3006 RMK A01 T03430140  RH  029%=      5-min Rain = 0
KTAS 031951Z 11006KT 35/14 A3006 RMK A01 T03450144  RH  030%=      5-min Rain = 0
KTAS 031952Z 12005KT 34/14 A3006 RMK A01 T03440140  RH  029%=      5-min Rain = 0
KTAS 031953Z 12008KT 34/14 A3006 RMK A01 T03440144  RH  030%=      5-min Rain = 0
KTAS 031954Z 14007KT 35/15 A3006 RMK A01 T03470148  RH  030%=      5-min Rain = 0
KTAS 031955Z 11006KT 35/15 A3006 RMK A01 T03470147  RH  030%=      5-min Rain = 0
KTAS 031956Z 11006KT 35/15 A3006 RMK A01 T03490150  RH  030%=      5-min Rain = 0
KTAS 031957Z 12008KT 35/15 A3006 RMK A01 T03490145  RH  030%=      5-min Rain = 0
KTAS 031958Z 12012G19KT 35/15 A3006 RMK A01 T03480148  RH  030%=      5-min Rain = 0
KTAS 031959Z 12018KT 35/15 A3006 RMK A01 T03480147  RH  030%=      5-min Rain = 0
KTAS 032000Z 13012KT 35/15 A3006 RMK A01 T03450147  RH  031%=      5-min Rain = 0
KTAS 032001Z 13011KT 35/15 A3006 RMK A01 T03460149  RH  031%=      5-min Rain = 0
KTAS 032002Z 13011KT 35/15 A3006 RMK A01 T03490153  RH  031%=      5-min Rain = 0
KTAS 032003Z 11010KT 35/14 A3006 RMK A01 T03480143  RH  029%=      5-min Rain = 0
KTAS 032004Z 12007KT 34/14 A3006 RMK A01 T03420143  RH  030%=      5-min Rain = 0
KTAS 032005Z 11013KT 35/15 A3005 RMK A01 T03450148  RH  031%=      5-min Rain = 0
KTAS 032006Z 11017KT 35/14 A3005 RMK A01 T03460143  RH  030%=      5-min Rain = 0
KTAS 032007Z 11012KT 35/14 A3006 RMK A01 T03450140  RH  029%=      5-min Rain = 0
KTAS 032008Z 13008KT 34/14 A3006 RMK A01 T03420143  RH  030%=      5-min Rain = 0
KTAS 032009Z 13010KT 34/14 A3006 RMK A01 T03440144  RH  030%=      5-min Rain = 0
KTAS 032010Z 12006KT 34/14 A3006 RMK A01 T03430141  RH  030%=      5-min Rain = 0
KTAS 032011Z 09007KT 34/15 A3006 RMK A01 T03440147  RH  031%=      5-min Rain = 0
KTAS 032012Z 09007KT 35/14 A3005 RMK A01 T03490144  RH  029%=      5-min Rain = 0
KTAS 032013Z 09007KT 35/14 A3005 RMK A01 T03480141  RH  029%=      5-min Rain = 0
KTAS 032014Z 13012G17KT 35/14 A3005 RMK A01 T03480144  RH  029%=      5-min Rain = 0
KTAS 032015Z 13011KT 35/14 A3006 RMK A01 T03470141  RH  029%=      5-min Rain = 0
KTAS 032016Z 13009KT 35/14 A3006 RMK A01 T03460143  RH  030%=      5-min Rain = 0
KTAS 032017Z 11009KT 35/14 A3005 RMK A01 T03460141  RH  029%=      5-min Rain = 0
KTAS 032018Z 12008KT 35/14 A3005 RMK A01 T03470144  RH  030%=      5-min Rain = 0
KTAS 032019Z 14010G15KT 35/15 A3006 RMK A01 T03520148  RH  030%=      5-min Rain = 0
KTAS 032020Z 14010KT 35/14 A3005 RMK A01 T03540143  RH  028%=      5-min Rain = 0
KTAS 032021Z 14011KT 36/15 A3005 RMK A01 T03550145  RH  029%=      5-min Rain = 0
KTAS 032022Z 16008KT 35/14 A3005 RMK A01 T03530136  RH  027%=      5-min Rain = 0
KTAS 032023Z 17008KT 35/14 A3005 RMK A01 T03490140  RH  028%=      5-min Rain = 0
KTAS 032024Z 19006KT 35/14 A3005 RMK A01 T03490137  RH  028%=      5-min Rain = 0
KTAS 032025Z 13005KT 35/14 A3005 RMK A01 T03480139  RH  029%=      5-min Rain = 0
KTAS 032026Z 10009KT 35/14 A3005 RMK A01 T03510144  RH  029%=      5-min Rain = 0
KTAS 032027Z 12010KT 36/15 A3005 RMK A01 T03550146  RH  029%=      5-min Rain = 0
KTAS 032028Z 13011KT 36/14 A3005 RMK A01 T03570142  RH  028%=      5-min Rain = 0
KTAS 032029Z 14009KT 35/14 A3005 RMK A01 T03540142  RH  028%=      5-min Rain = 0
KTAS 032030Z 15007KT 35/14 A3005 RMK A01 T03530141  RH  028%=      5-min Rain = 0
KTAS 032031Z 12010KT 35/14 A3005 RMK A01 T03540143  RH  028%=      5-min Rain = 0
KTAS 032032Z 12009KT 35/14 A3005 RMK A01 T03530141  RH  028%=      5-min Rain = 0
KTAS 032033Z 11007KT 35/14 A3005 RMK A01 T03530139  RH  028%=      5-min Rain = 0
KTAS 032034Z 11006KT 35/14 A3005 RMK A01 T03510140  RH  028%=      5-min Rain = 0
KTAS 032035Z 12008KT 35/14 A3005 RMK A01 T03530142  RH  028%=      5-min Rain = 0
KTAS 032036Z 14011G18KT 35/14 A3005 RMK A01 T03530138  RH  028%=      5-min Rain = 0
KTAS 032037Z 13015KT 35/14 A3005 RMK A01 T03520136  RH  027%=      5-min Rain = 0
KTAS 032038Z 13010KT 35/14 A3005 RMK A01 T03510140  RH  028%=      5-min Rain = 0
KTAS 032039Z 12008KT 35/14 A3005 RMK A01 T03530142  RH  028%=      5-min Rain = 0
KTAS 032040Z 12008KT 36/14 A3005 RMK A01 T03550140  RH  028%=      5-min Rain = 0
KTAS 032041Z 12011KT 35/14 A3005 RMK A01 T03540135  RH  027%=      5-min Rain = 0
KTAS 032042Z 14011KT 35/14 A3005 RMK A01 T03540139  RH  028%=      5-min Rain = 0
KTAS 032043Z 14014KT 35/13 A3005 RMK A01 T03540134  RH  027%=      5-min Rain = 0
KTAS 032044Z 13014KT 35/13 A3005 RMK A01 T03510130  RH  026%=      5-min Rain = 0
KTAS 032045Z 13014KT 35/14 A3005 RMK A01 T03500135  RH  028%=      5-min Rain = 0
KTAS 032046Z 13012G17KT 35/13 A3005 RMK A01 T03510134  RH  027%=      5-min Rain = 0
KTAS 032047Z 13009KT 35/14 A3005 RMK A01 T03520136  RH  027%=      5-min Rain = 0
KTAS 032048Z 15008KT 35/14 A3005 RMK A01 T03540136  RH  027%=      5-min Rain = 0
KTAS 032049Z 15008KT 35/13 A3005 RMK A01 T03530132  RH  026%=      5-min Rain = 0
KTAS 032050Z 15011KT 35/13 A3004 RMK A01 T03530134  RH  027%=      5-min Rain = 0
KTAS 032051Z 17008KT 36/13 A3004 RMK A01 T03550133  RH  026%=      5-min Rain = 0
KTAS 032052Z 15007KT 35/13 A3005 RMK A01 T03530131  RH  026%=      5-min Rain = 0
KTAS 032053Z 12008KT 35/14 A3005 RMK A01 T03540135  RH  027%=      5-min Rain = 0
KTAS 032054Z 09007KT 35/14 A3005 RMK A01 T03540135  RH  027%=      5-min Rain = 0
KTAS 032055Z 13006KT 36/13 A3005 RMK A01 T03550134  RH  026%=      5-min Rain = 0
KTAS 032056Z 16007KT 35/13 A3004 RMK A01 T03540131  RH  026%=      5-min Rain = 0
KTAS 032057Z 16006KT 36/13 A3004 RMK A01 T03550133  RH  026%=      5-min Rain = 0
KTAS 032058Z 13006G12KT 36/13 A3004 RMK A01 T03550130  RH  026%=      5-min Rain = 0
KTAS 032059Z 13013KT 35/13 A3004 RMK A01 T03540132  RH  026%=      5-min Rain = 0
KTAS 032100Z 12014KT 35/13 A3004 RMK A01 T03540131  RH  026%=      5-min Rain = 0
KTAS 032101Z 13016KT 35/13 A3004 RMK A01 T03540132  RH  026%=      5-min Rain = 0
KTAS 032102Z 16011KT 35/13 A3004 RMK A01 T03530130  RH  026%=      5-min Rain = 0
KTAS 032103Z 17012KT 35/13 A3004 RMK A01 T03530129  RH  026%=      5-min Rain = 0
KTAS 032104Z 18009KT 35/13 A3004 RMK A01 T03520130  RH  026%=      5-min Rain = 0
KTAS 032105Z 14010G18KT 35/14 A3004 RMK A01 T03540135  RH  027%=      5-min Rain = 0
KTAS 032106Z 14013G18KT 36/13 A3004 RMK A01 T03570133  RH  026%=      5-min Rain = 0
KTAS 032107Z 13015KT 36/13 A3004 RMK A01 T03570131  RH  026%=      5-min Rain = 0
KTAS 032108Z 13013KT 36/13 A3004 RMK A01 T03550128  RH  026%=      5-min Rain = 0
KTAS 032109Z 12008KT 35/13 A3004 RMK A01 T03520128  RH  026%=      5-min Rain = 0
KTAS 032110Z 13008KT 35/13 A3004 RMK A01 T03520129  RH  026%=      5-min Rain = 0
KTAS 032111Z 13008KT 35/13 A3004 RMK A01 T03530129  RH  026%=      5-min Rain = 0
KTAS 032112Z 10010KT 35/13 A3004 RMK A01 T03540128  RH  026%=      5-min Rain = 0
KTAS 032113Z 09007KT 35/12 A3004 RMK A01 T03490124  RH  026%=      5-min Rain = 0
KTAS 032114Z 08010KT 35/13 A3004 RMK A01 T03500129  RH  026%=      5-min Rain = 0
KTAS 032115Z 10010KT 35/13 A3004 RMK A01 T03510128  RH  026%=      5-min Rain = 0
KTAS 032116Z 11012KT 35/13 A3004 RMK A01 T03530132  RH  026%=      5-min Rain = 0
KTAS 032117Z 12008KT 36/13 A3004 RMK A01 T03560132  RH  026%=      5-min Rain = 0
KTAS 032118Z 12006KT 36/13 A3004 RMK A01 T03550125  RH  025%=      5-min Rain = 0
KTAS 032119Z 12005KT 35/13 A3004 RMK A01 T03520127  RH  026%=      5-min Rain = 0
KTAS 032120Z 13007KT 36/13 A3004 RMK A01 T03550132  RH  026%=      5-min Rain = 0
KTAS 032121Z 09007KT 36/13 A3004 RMK A01 T03570131  RH  026%=      5-min Rain = 0
KTAS 032122Z 09008KT 36/13 A3004 RMK A01 T03550129  RH  026%=      5-min Rain = 0
KTAS 032123Z 09006KT 36/13 A3004 RMK A01 T03550127  RH  025%=      5-min Rain = 0
KTAS 032124Z 09009KT 36/13 A3004 RMK A01 T03550132  RH  026%=      5-min Rain = 0
KTAS 032125Z 10010KT 36/13 A3004 RMK A01 T03570132  RH  026%=      5-min Rain = 0
KTAS 032126Z 10009KT 36/13 A3004 RMK A01 T03560128  RH  025%=      5-min Rain = 0
KTAS 032127Z 11009KT 36/13 A3004 RMK A01 T03550130  RH  026%=      5-min Rain = 0
KTAS 032128Z 13008KT 36/13 A3004 RMK A01 T03550127  RH  025%=      5-min Rain = 0
KTAS 032129Z 18004KT 35/12 A3004 RMK A01 T03540124  RH  025%=      5-min Rain = 0
KTAS 032130Z 14003KT 36/13 A3004 RMK A01 T03550125  RH  025%=      5-min Rain = 0
KTAS 032131Z 13008KT 36/13 A3004 RMK A01 T03560128  RH  025%=      5-min Rain = 0
KTAS 032132Z 14010KT 36/13 A3004 RMK A01 T03570129  RH  025%=      5-min Rain = 0
KTAS 032133Z 15008KT 36/13 A3004 RMK A01 T03590126  RH  025%=      5-min Rain = 0
KTAS 032134Z 14005KT 36/12 A3004 RMK A01 T03570124  RH  025%=      5-min Rain = 0
KTAS 032135Z 12007KT 36/13 A3004 RMK A01 T03570126  RH  025%=      5-min Rain = 0
KTAS 032136Z 14007KT 36/13 A3004 RMK A01 T03580127  RH  025%=      5-min Rain = 0
KTAS 032137Z 13011KT 36/13 A3004 RMK A01 T03580126  RH  025%=      5-min Rain = 0
KTAS 032138Z 11013KT 36/13 A3004 RMK A01 T03580125  RH  025%=      5-min Rain = 0
KTAS 032139Z 12012KT 36/13 A3004 RMK A01 T03570125  RH  025%=      5-min Rain = 0
KTAS 032140Z 12011KT 36/12 A3004 RMK A01 T03550120  RH  024%=      5-min Rain = 0
KTAS 032141Z 11008KT 35/12 A3004 RMK A01 T03530121  RH  025%=      5-min Rain = 0
KTAS 032142Z 10011KT 35/13 A3004 RMK A01 T03540125  RH  025%=      5-min Rain = 0
KTAS 032143Z 12009KT 36/13 A3004 RMK A01 T03570127  RH  025%=      5-min Rain = 0
KTAS 032144Z 12010KT 36/12 A3004 RMK A01 T03570123  RH  024%=      5-min Rain = 0
KTAS 032145Z 10007KT 35/12 A3004 RMK A01 T03540121  RH  024%=      5-min Rain = 0
KTAS 032146Z 11008KT 35/13 A3004 RMK A01 T03540125  RH  025%=      5-min Rain = 0
KTAS 032147Z 10007KT 36/12 A3004 RMK A01 T03550123  RH  025%=      5-min Rain = 0
KTAS 032148Z 12005KT 36/12 A3004 RMK A01 T03550121  RH  025%=      5-min Rain = 0
KTAS 032149Z 13008KT 35/12 A3004 RMK A01 T03540120  RH  024%=      5-min Rain = 0
KTAS 032150Z 15006KT 35/12 A3004 RMK A01 T03540120  RH  024%=      5-min Rain = 0
KTAS 032151Z 16007KT 36/12 A3004 RMK A01 T03560122  RH  024%=      5-min Rain = 0
KTAS 032152Z 16006KT 36/12 A3004 RMK A01 T03560120  RH  024%=      5-min Rain = 0
KTAS 032153Z 14004KT 36/12 A3003 RMK A01 T03560118  RH  024%=      5-min Rain = 0
KTAS 032154Z 14005KT 36/12 A3003 RMK A01 T03560121  RH  024%=      5-min Rain = 0
KTAS 032155Z 10006G11KT 36/12 A3003 RMK A01 T03580122  RH  024%=      5-min Rain = 0
KTAS 032156Z 09009KT 36/12 A3003 RMK A01 T03560120  RH  024%=      5-min Rain = 0
KTAS 032157Z 09010KT 36/12 A3003 RMK A01 T03560124  RH  025%=      5-min Rain = 0
KTAS 032158Z 08012KT 36/12 A3003 RMK A01 T03570121  RH  024%=      5-min Rain = 0
KTAS 032159Z 08008KT 36/12 A3003 RMK A01 T03570121  RH  024%=      5-min Rain = 0
KTAS 032200Z 10008KT 36/12 A3003 RMK A01 T03570120  RH  024%=      5-min Rain = 0
KTAS 032201Z 12011KT 36/12 A3003 RMK A01 T03570123  RH  024%=      5-min Rain = 0
KTAS 032202Z 13012KT 36/12 A3003 RMK A01 T03570119  RH  024%=      5-min Rain = 0
KTAS 032203Z 14011KT 36/12 A3003 RMK A01 T03560119  RH  024%=      5-min Rain = 0
KTAS 032204Z 13007KT 36/12 A3003 RMK A01 T03560122  RH  024%=      5-min Rain = 0
KTAS 032205Z 16009KT 36/12 A3003 RMK A01 T03570121  RH  024%=      5-min Rain = 0
KTAS 032206Z 16008KT 36/12 A3003 RMK A01 T03570118  RH  024%=      5-min Rain = 0
KTAS 032207Z 16004KT 36/11 A3003 RMK A01 T03560114  RH  023%=      5-min Rain = 0
KTAS 032208Z 16005KT 36/12 A3003 RMK A01 T03550115  RH  023%=      5-min Rain = 0
KTAS 032209Z 16003KT 36/12 A3003 RMK A01 T03550117  RH  024%=      5-min Rain = 0
KTAS 032210Z 10004KT 36/12 A3003 RMK A01 T03570119  RH  024%=      5-min Rain = 0
KTAS 032211Z 12003G9KT 36/11 A3003 RMK A01 T03550113  RH  023%=      5-min Rain = 0
KTAS 032212Z 12009G15KT 36/12 A3003 RMK A01 T03550117  RH  024%=      5-min Rain = 0
KTAS 032213Z 12013KT 36/12 A3003 RMK A01 T03570119  RH  024%=      5-min Rain = 0
KTAS 032214Z 14010KT 36/12 A3003 RMK A01 T03570118  RH  024%=      5-min Rain = 0
KTAS 032215Z 14012KT 36/12 A3003 RMK A01 T03580118  RH  024%=      5-min Rain = 0
KTAS 032216Z 13012KT 36/12 A3003 RMK A01 T03560118  RH  024%=      5-min Rain = 0
KTAS 032217Z 13009KT 36/12 A3003 RMK A01 T03550119  RH  024%=      5-min Rain = 0
KTAS 032218Z 13008KT 36/12 A3003 RMK A01 T03560120  RH  024%=      5-min Rain = 0
KTAS 032219Z 14005KT 36/12 A3003 RMK A01 T03550117  RH  024%=      5-min Rain = 0
KTAS 032220Z 16005KT 36/12 A3003 RMK A01 T03550115  RH  023%=      5-min Rain = 0
KTAS 032221Z 17001KT 35/11 A3003 RMK A01 T03530109  RH  023%=      5-min Rain = 0
KTAS 032222Z 13004G9KT 35/11 A3003 RMK A01 T03530110  RH  023%=      5-min Rain = 0
KTAS 032223Z 11008KT 35/11 A3003 RMK A01 T03530109  RH  023%=      5-min Rain = 0
KTAS 032224Z 10005KT 35/11 A3002 RMK A01 T03500106  RH  023%=      5-min Rain = 0
KTAS 032225Z 11006G11KT 35/11 A3002 RMK A01 T03500108  RH  023%=      5-min Rain = 0
KTAS 032226Z 09009KT 35/12 A3002 RMK A01 T03530116  RH  024%=      5-min Rain = 0
KTAS 032227Z 08007KT 36/12 A3002 RMK A01 T03570118  RH  024%=      5-min Rain = 0
KTAS 032228Z 08008KT 36/11 A3002 RMK A01 T03560112  RH  023%=      5-min Rain = 0
KTAS 032229Z 10008KT 36/12 A3002 RMK A01 T03560117  RH  024%=      5-min Rain = 0
KTAS 032230Z 09008KT 36/12 A3002 RMK A01 T03570116  RH  023%=      5-min Rain = 0
KTAS 032231Z 09007KT 36/12 A3002 RMK A01 T03560115  RH  023%=      5-min Rain = 0
KTAS 032232Z 08005KT 36/12 A3002 RMK A01 T03580121  RH  024%=      5-min Rain = 0
KTAS 032233Z 12006KT 36/12 A3002 RMK A01 T03630123  RH  024%=      5-min Rain = 0
KTAS 032234Z 13009KT 36/12 A3002 RMK A01 T03640120  RH  023%=      5-min Rain = 0
KTAS 032235Z 13009KT 36/12 A3002 RMK A01 T03610116  RH  023%=      5-min Rain = 0
KTAS 032236Z 13009KT 36/12 A3002 RMK A01 T03600116  RH  023%=      5-min Rain = 0
KTAS 032237Z 13005KT 36/11 A3002 RMK A01 T03580113  RH  023%=      5-min Rain = 0
KTAS 032238Z 13005KT 36/12 A3002 RMK A01 T03590116  RH  023%=      5-min Rain = 0
KTAS 032239Z 15004KT 36/12 A3002 RMK A01 T03610120  RH  023%=      5-min Rain = 0
KTAS 032240Z 13004KT 36/12 A3002 RMK A01 T03620118  RH  023%=      5-min Rain = 0
KTAS 032241Z 17005KT 36/11 A3002 RMK A01 T03610113  RH  022%=      5-min Rain = 0
KTAS 032242Z 11010G15KT 36/12 A3001 RMK A01 T03600117  RH  023%=      5-min Rain = 0
KTAS 032243Z 11012KT 36/11 A3002 RMK A01 T03560113  RH  023%=      5-min Rain = 0
KTAS 032244Z 13011KT 35/11 A3002 RMK A01 T03540111  RH  023%=      5-min Rain = 0
KTAS 032245Z 13010KT 35/11 A3002 RMK A01 T03530114  RH  024%=      5-min Rain = 0
KTAS 032246Z 12008KT 35/11 A3002 RMK A01 T03520113  RH  023%=      5-min Rain = 0
KTAS 032247Z 13009KT 35/12 A3002 RMK A01 T03530115  RH  024%=      5-min Rain = 0
KTAS 032248Z 13006KT 35/11 A3002 RMK A01 T03510110  RH  023%=      5-min Rain = 0
KTAS 032249Z 12006KT 35/11 A3002 RMK A01 T03500112  RH  024%=      5-min Rain = 0
KTAS 032250Z 12006KT 35/11 A3002 RMK A01 T03490110  RH  023%=      5-min Rain = 0
KTAS 032251Z 12005KT 35/12 A3002 RMK A01 T03480115  RH  024%=      5-min Rain = 0
KTAS 032252Z 12005KT 35/11 A3002 RMK A01 T03470112  RH  024%=      5-min Rain = 0
KTAS 032253Z 13004KT 35/11 A3002 RMK A01 T03460108  RH  024%=      5-min Rain = 0
KTAS 032254Z 17002KT 35/11 A3002 RMK A01 T03460114  RH  024%=      5-min Rain = 0
KTAS 032255Z 11002KT 35/11 A3001 RMK A01 T03460108  RH  023%=      5-min Rain = 0
KTAS 032256Z 11002KT 35/11 A3001 RMK A01 T03450105  RH  023%=      5-min Rain = 0
KTAS 032257Z 08001KT 35/11 A3001 RMK A01 T03460107  RH  023%=      5-min Rain = 0
KTAS 032258Z 09003KT 35/11 A3001 RMK A01 T03460107  RH  023%=      5-min Rain = 0
KTAS 032259Z 09003KT 35/11 A3001 RMK A01 T03450114  RH  025%=      5-min Rain = 0
KTAS 032300Z 11005KT 35/11 A3001 RMK A01 T03450114  RH  025%=      5-min Rain = 0
KTAS 032301Z 10007KT 35/11 A3001 RMK A01 T03450114  RH  025%=      5-min Rain = 0
KTAS 032302Z 07005KT 34/11 A3001 RMK A01 T03440112  RH  024%=      5-min Rain = 0
KTAS 032303Z 10005KT 34/12 A3001 RMK A01 T03440116  RH  025%=      5-min Rain = 0
KTAS 032304Z 12006KT 34/12 A3001 RMK A01 T03440116  RH  025%=      5-min Rain = 0
KTAS 032305Z 14008KT 34/11 A3001 RMK A01 T03440113  RH  025%=      5-min Rain = 0
KTAS 032306Z 13007KT 34/11 A3001 RMK A01 T03430110  RH  024%=      5-min Rain = 0
KTAS 032307Z 13006KT 34/11 A3001 RMK A01 T03430109  RH  024%=      5-min Rain = 0
KTAS 032308Z 14005KT 34/11 A3001 RMK A01 T03430110  RH  024%=      5-min Rain = 0
KTAS 032309Z 11008KT 34/11 A3001 RMK A01 T03430114  RH  025%=      5-min Rain = 0
KTAS 032310Z 09008KT 34/12 A3001 RMK A01 T03440116  RH  025%=      5-min Rain = 0
KTAS 032311Z 10007KT 34/12 A3001 RMK A01 T03440116  RH  025%=      5-min Rain = 0
KTAS 032312Z 13006KT 34/11 A3001 RMK A01 T03440114  RH  025%=      5-min Rain = 0
KTAS 032313Z 12006KT 34/11 A3001 RMK A01 T03440113  RH  025%=      5-min Rain = 0
KTAS 032314Z 11005KT 34/11 A3001 RMK A01 T03440111  RH  024%=      5-min Rain = 0
KTAS 032315Z 11006KT 34/11 A3001 RMK A01 T03440110  RH  024%=      5-min Rain = 0
KTAS 032316Z 10006KT 34/11 A3001 RMK A01 T03440111  RH  024%=      5-min Rain = 0
KTAS 032317Z 09007KT 34/12 A3001 RMK A01 T03440115  RH  025%=      5-min Rain = 0
KTAS 032318Z 09006KT 35/12 A3001 RMK A01 T03450117  RH  025%=      5-min Rain = 0
KTAS 032319Z 08008KT 35/12 A3001 RMK A01 T03460116  RH  025%=      5-min Rain = 0
KTAS 032320Z 08008KT 35/12 A3001 RMK A01 T03460115  RH  025%=      5-min Rain = 0
KTAS 032321Z 07007KT 35/12 A3001 RMK A01 T03450116  RH  025%=      5-min Rain = 0
KTAS 032322Z 09006KT 35/12 A3001 RMK A01 T03450118  RH  025%=      5-min Rain = 0
KTAS 032323Z 08006KT 35/12 A3001 RMK A01 T03450120  RH  026%=      5-min Rain = 0
KTAS 032324Z 07005KT 35/12 A3001 RMK A01 T03450117  RH  025%=      5-min Rain = 0
KTAS 032325Z 08006KT 34/12 A3001 RMK A01 T03430115  RH  025%=      5-min Rain = 0
KTAS 032326Z 08006KT 34/11 A3001 RMK A01 T03420113  RH  025%=      5-min Rain = 0
KTAS 032327Z 09006KT 34/11 A3001 RMK A01 T03410111  RH  025%=      5-min Rain = 0
KTAS 032328Z 10005KT 34/11 A3001 RMK A01 T03400114  RH  025%=      5-min Rain = 0
KTAS 032329Z 13007KT 34/12 A3001 RMK A01 T03400117  RH  026%=      5-min Rain = 0
KTAS 032330Z 13009KT 34/11 A3001 RMK A01 T03400114  RH  025%=      5-min Rain = 0
KTAS 032331Z 13008KT 34/11 A3001 RMK A01 T03400112  RH  025%=      5-min Rain = 0
KTAS 032332Z 14007KT 34/11 A30 RMK A01 T03400110  RH  025%=      5-min Rain = 0
KTAS 032333Z 14009KT 34/11 A30 RMK A01 T03400109  RH  025%=      5-min Rain = 0
KTAS 032334Z 13007KT 34/11 A30 RMK A01 T03390111  RH  025%=      5-min Rain = 0
KTAS 032335Z 12006KT 34/12 A30 RMK A01 T03390118  RH  026%=      5-min Rain = 0
KTAS 032336Z 10006KT 34/12 A30 RMK A01 T03390123  RH  027%=      5-min Rain = 0
KTAS 032337Z 11005KT 34/12 A30 RMK A01 T03380117  RH  026%=      5-min Rain = 0
KTAS 032338Z 09006KT 34/12 A30 RMK A01 T03380119  RH  026%=      5-min Rain = 0
KTAS 032339Z 08009KT 34/12 A30 RMK A01 T03370122  RH  027%=      5-min Rain = 0
KTAS 032340Z 09008KT 34/12 A30 RMK A01 T03360118  RH  027%=      5-min Rain = 0
KTAS 032341Z 09007KT 34/12 A30 RMK A01 T03350116  RH  026%=      5-min Rain = 0
KTAS 032342Z 08005KT 34/12 A30 RMK A01 T03350118  RH  027%=      5-min Rain = 0
KTAS 032343Z 09005KT 34/12 A30 RMK A01 T03350122  RH  028%=      5-min Rain = 0
KTAS 032344Z 07005KT 33/12 A30 RMK A01 T03340120  RH  027%=      5-min Rain = 0
KTAS 032345Z 07008KT 33/12 A30 RMK A01 T03340123  RH  028%=      5-min Rain = 0
KTAS 032346Z 07008KT 33/12 A30 RMK A01 T03330122  RH  028%=      5-min Rain = 0
KTAS 032347Z 08007KT 33/12 A30 RMK A01 T03330118  RH  027%=      5-min Rain = 0
KTAS 032348Z 10006KT 33/12 A30 RMK A01 T03330124  RH  028%=      5-min Rain = 0
KTAS 032349Z 11005KT 33/13 A30 RMK A01 T03330126  RH  029%=      5-min Rain = 0
KTAS 032350Z 13006KT 33/13 A30 RMK A01 T03330125  RH  028%=      5-min Rain = 0
KTAS 032351Z 14008KT 33/11 A30 RMK A01 T03340114  RH  026%=      5-min Rain = 0
KTAS 032352Z 12006KT 33/12 A30 RMK A01 T03340115  RH  026%=      5-min Rain = 0
KTAS 032353Z 10008KT 33/12 A30 RMK A01 T03340116  RH  027%=      5-min Rain = 0
KTAS 032354Z 09007KT 33/12 A30 RMK A01 T03340116  RH  026%=      5-min Rain = 0
KTAS 032355Z 10008KT 33/12 A30 RMK A01 T03340120  RH  027%=      5-min Rain = 0
KTAS 032356Z 11008KT 33/12 A30 RMK A01 T03330119  RH  027%=      5-min Rain = 0
KTAS 032357Z 11007KT 33/12 A30 RMK A01 T03330117  RH  027%=      5-min Rain = 0
KTAS 032358Z 11006KT 33/12 A30 RMK A01 T03340117  RH  027%=      5-min Rain = 0
KTAS 032359Z 10007KT 33/12 A30 RMK A01 T03340119  RH  027%=      5-min Rain = 0
KTAS 040000Z 11006KT 33/12 A30 RMK A01 T03340118  RH  027%=      5-min Rain = 0
KTAS 040001Z 10007KT 34/12 A30 RMK A01 T03350122  RH  028%=      5-min Rain = 0
KTAS 040002Z 11005KT 33/12 A30 RMK A01 T03340123  RH  028%=      5-min Rain = 0
KTAS 040003Z 10009KT 33/13 A30 RMK A01 T03340125  RH  028%=      5-min Rain = 0
KTAS 040004Z 09008KT 33/12 A30 RMK A01 T03340120  RH  027%=      5-min Rain = 0
KTAS 040005Z 10007KT 33/12 A30 RMK A01 T03340122  RH  027%=      5-min Rain = 0
KTAS 040006Z 09007KT 33/12 A30 RMK A01 T03340121  RH  027%=      5-min Rain = 0
KTAS 040007Z 08006KT 33/13 A30 RMK A01 T03340126  RH  028%=      5-min Rain = 0
KTAS 040008Z 08007KT 33/13 A30 RMK A01 T03330128  RH  029%=      5-min Rain = 0
KTAS 040009Z 08008KT 33/13 A30 RMK A01 T03320126  RH  029%=      5-min Rain = 0
KTAS 040010Z 07008KT 33/13 A30 RMK A01 T03320125  RH  028%=      5-min Rain = 0
KTAS 040011Z 07007KT 33/12 A30 RMK A01 T03320124  RH  028%=      5-min Rain = 0
KTAS 040012Z 09009KT 33/12 A30 RMK A01 T03320121  RH  028%=      5-min Rain = 0
KTAS 040013Z 09007KT 33/12 A30 RMK A01 T03320120  RH  028%=      5-min Rain = 0
KTAS 040014Z 08007KT 33/12 A30 RMK A01 T03320124  RH  028%=      5-min Rain = 0
KTAS 040015Z 09006KT 33/13 A30 RMK A01 T03310126  RH  029%=      5-min Rain = 0
KTAS 040016Z 10007KT 33/13 A30 RMK A01 T03310128  RH  029%=      5-min Rain = 0
KTAS 040017Z 09007KT 33/13 A30 RMK A01 T03300127  RH  029%=      5-min Rain = 0
KTAS 040018Z 09007KT 33/12 A30 RMK A01 T03300121  RH  028%=      5-min Rain = 0
KTAS 040019Z 10008KT 33/12 A30 RMK A01 T03300119  RH  028%=      5-min Rain = 0
KTAS 040020Z 11008KT 33/12 A30 RMK A01 T03300119  RH  028%=      5-min Rain = 0
KTAS 040021Z 10010KT 33/12 A30 RMK A01 T03310118  RH  027%=      5-min Rain = 0
KTAS 040022Z 10008KT 33/12 A30 RMK A01 T03310117  RH  027%=      5-min Rain = 0
KTAS 040023Z 11007KT 33/11 A30 RMK A01 T03310112  RH  026%=      5-min Rain = 0
KTAS 040024Z 11007KT 33/12 A30 RMK A01 T03320118  RH  027%=      5-min Rain = 0
KTAS 040025Z 11008KT 33/12 A3001 RMK A01 T03310119  RH  027%=      5-min Rain = 0
KTAS 040026Z 11007KT 33/12 A3001 RMK A01 T03300118  RH  027%=      5-min Rain = 0
KTAS 040027Z 11009KT 33/12 A3001 RMK A01 T03300116  RH  027%=      5-min Rain = 0
KTAS 040028Z 12008KT 33/11 A3001 RMK A01 T03300114  RH  027%=      5-min Rain = 0
KTAS 040029Z 11009KT 33/11 A3001 RMK A01 T03310113  RH  027%=      5-min Rain = 0
KTAS 040030Z 10012KT 33/11 A3001 RMK A01 T03310113  RH  026%=      5-min Rain = 0
KTAS 040031Z 10008KT 33/11 A3001 RMK A01 T03310113  RH  026%=      5-min Rain = 0
KTAS 040032Z 11007KT 33/12 A3001 RMK A01 T03310115  RH  027%=      5-min Rain = 0
KTAS 040033Z 11006KT 33/12 A3001 RMK A01 T03310115  RH  027%=      5-min Rain = 0
KTAS 040034Z 11008KT 33/12 A3001 RMK A01 T03320116  RH  027%=      5-min Rain = 0
KTAS 040035Z 11007KT 33/12 A3001 RMK A01 T03320116  RH  027%=      5-min Rain = 0
KTAS 040036Z 11007KT 33/12 A3001 RMK A01 T03330117  RH  027%=      5-min Rain = 0
KTAS 040037Z 11007KT 33/12 A3001 RMK A01 T03330119  RH  027%=      5-min Rain = 0
KTAS 040038Z 11006KT 33/12 A3001 RMK A01 T03330119  RH  027%=      5-min Rain = 0
KTAS 040039Z 10007KT 33/12 A3001 RMK A01 T03330122  RH  028%=      5-min Rain = 0
KTAS 040040Z 10007KT 33/12 A3001 RMK A01 T03330121  RH  028%=      5-min Rain = 0
KTAS 040041Z 11006KT 33/12 A3001 RMK A01 T03330122  RH  028%=      5-min Rain = 0
KTAS 040042Z 12006KT 33/12 A3001 RMK A01 T03330123  RH  028%=      5-min Rain = 0
KTAS 040043Z 12006KT 33/12 A3001 RMK A01 T03340121  RH  027%=      5-min Rain = 0
KTAS 040044Z 12007KT 33/12 A3001 RMK A01 T03340117  RH  027%=      5-min Rain = 0
KTAS 040045Z 11006KT 33/12 A3001 RMK A01 T03340118  RH  027%=      5-min Rain = 0
KTAS 040046Z 11006KT 33/12 A3001 RMK A01 T03340118  RH  027%=      5-min Rain = 0
KTAS 040047Z 11005KT 33/12 A3001 RMK A01 T03330119  RH  027%=      5-min Rain = 0
KTAS 040048Z 10005KT 33/12 A3001 RMK A01 T03330123  RH  028%=      5-min Rain = 0
KTAS 040049Z 09007KT 33/12 A3001 RMK A01 T03330124  RH  028%=      5-min Rain = 0
KTAS 040050Z 09007KT 33/12 A3001 RMK A01 T03320122  RH  028%=      5-min Rain = 0
KTAS 040051Z 09007KT 33/12 A3001 RMK A01 T03320118  RH  027%=      5-min Rain = 0
KTAS 040052Z 09007KT 33/12 A3001 RMK A01 T03310121  RH  028%=      5-min Rain = 0
KTAS 040053Z 09007KT 33/12 A3001 RMK A01 T03320122  RH  028%=      5-min Rain = 0
KTAS 040054Z 09006KT 33/12 A3001 RMK A01 T03310123  RH  028%=      5-min Rain = 0
KTAS 040055Z 09006KT 33/12 A3001 RMK A01 T03310119  RH  028%=      5-min Rain = 0
KTAS 040056Z 10008KT 33/12 A3001 RMK A01 T03310119  RH  027%=      5-min Rain = 0
KTAS 040057Z 10007KT 33/12 A3001 RMK A01 T03310121  RH  028%=      5-min Rain = 0
KTAS 040058Z 10007KT 33/12 A3001 RMK A01 T03300121  RH  028%=      5-min Rain = 0
KTAS 040059Z 09006KT 33/12 A3001 RMK A01 T03300120  RH  028%=      5-min Rain = 0
KTAS 040100Z 09008KT 33/12 A3001 RMK A01 T03300120  RH  028%=      5-min Rain = 0
KTAS 040101Z 10008KT 33/12 A3001 RMK A01 T03300118  RH  028%=      5-min Rain = 0
KTAS 040102Z 10008KT 33/12 A3001 RMK A01 T03290117  RH  027%=      5-min Rain = 0
KTAS 040103Z 09007KT 33/12 A3001 RMK A01 T03290116  RH  027%=      5-min Rain = 0
KTAS 040104Z 10007KT 33/12 A3001 RMK A01 T03290120  RH  028%=      5-min Rain = 0
KTAS 040105Z 09007KT 33/12 A3001 RMK A01 T03290121  RH  028%=      5-min Rain = 0
KTAS 040106Z 10007KT 33/12 A3001 RMK A01 T03280122  RH  029%=      5-min Rain = 0
KTAS 040107Z 10007KT 33/12 A3001 RMK A01 T03280123  RH  029%=      5-min Rain = 0
KTAS 040108Z 10007KT 33/12 A3001 RMK A01 T03280122  RH  028%=      5-min Rain = 0
KTAS 040109Z 10008KT 33/12 A3001 RMK A01 T03270121  RH  028%=      5-min Rain = 0
KTAS 040110Z 10010KT 33/12 A3001 RMK A01 T03270116  RH  028%=      5-min Rain = 0
KTAS 040111Z 10009KT 33/11 A3001 RMK A01 T03270114  RH  027%=      5-min Rain = 0
KTAS 040112Z 11007KT 33/11 A3001 RMK A01 T03270113  RH  027%=      5-min Rain = 0
KTAS 040113Z 12007KT 33/12 A3001 RMK A01 T03260115  RH  028%=      5-min Rain = 0
KTAS 040114Z 11006KT 33/11 A3001 RMK A01 T03260113  RH  027%=      5-min Rain = 0
KTAS 040115Z 10008KT 33/11 A3001 RMK A01 T03250113  RH  027%=      5-min Rain = 0
KTAS 040116Z 10007KT 32/11 A3001 RMK A01 T03240114  RH  028%=      5-min Rain = 0
KTAS 040117Z 10006KT 32/12 A3001 RMK A01 T03240115  RH  028%=      5-min Rain = 0
KTAS 040118Z 10006KT 32/12 A3001 RMK A01 T03230115  RH  028%=      5-min Rain = 0
KTAS 040119Z 10006KT 32/12 A3001 RMK A01 T03220118  RH  029%=      5-min Rain = 0
KTAS 040120Z 11006KT 32/12 A3001 RMK A01 T03210118  RH  029%=      5-min Rain = 0
KTAS 040121Z 12005KT 32/11 A3001 RMK A01 T03200114  RH  028%=      5-min Rain = 0
KTAS 040122Z 10005KT 32/11 A3001 RMK A01 T03190114  RH  029%=      5-min Rain = 0
KTAS 040123Z 11006KT 32/11 A3001 RMK A01 T03180114  RH  029%=      5-min Rain = 0
KTAS 040124Z 12006KT 32/11 A3001 RMK A01 T03180113  RH  028%=      5-min Rain = 0
KTAS 040125Z 11007KT 32/11 A3001 RMK A01 T03190111  RH  028%=      5-min Rain = 0
KTAS 040126Z 11006KT 32/11 A3001 RMK A01 T03190111  RH  028%=      5-min Rain = 0
KTAS 040127Z 11006KT 32/11 A3001 RMK A01 T03200112  RH  028%=      5-min Rain = 0
KTAS 040128Z 10007KT 32/11 A3001 RMK A01 T03200110  RH  028%=      5-min Rain = 0
KTAS 040129Z 11006KT 32/11 A3001 RMK A01 T03190110  RH  028%=      5-min Rain = 0
KTAS 040130Z 11006KT 32/11 A3001 RMK A01 T03180111  RH  028%=      5-min Rain = 0
KTAS 040131Z 11006KT 32/11 A3001 RMK A01 T03170111  RH  028%=      5-min Rain = 0
KTAS 040132Z 11006KT 32/11 A3001 RMK A01 T03170110  RH  028%=      5-min Rain = 0
KTAS 040133Z 11006KT 32/11 A3001 RMK A01 T03170109  RH  028%=      5-min Rain = 0
KTAS 040134Z 11006KT 32/11 A3001 RMK A01 T03160109  RH  028%=      5-min Rain = 0
KTAS 040135Z 11005KT 32/11 A3001 RMK A01 T03150109  RH  028%=      5-min Rain = 0
KTAS 040136Z 11005KT 31/11 A3001 RMK A01 T03140111  RH  029%=      5-min Rain = 0
KTAS 040137Z 11006KT 31/11 A3001 RMK A01 T03120111  RH  029%=      5-min Rain = 0
KTAS 040138Z 12005KT 31/11 A3001 RMK A01 T03120110  RH  029%=      5-min Rain = 0
KTAS 040139Z 12005KT 31/11 A3002 RMK A01 T03110109  RH  029%=      5-min Rain = 0
KTAS 040140Z 11005KT 31/11 A3002 RMK A01 T03110110  RH  029%=      5-min Rain = 0
KTAS 040141Z 11005KT 31/11 A3002 RMK A01 T03110109  RH  029%=      5-min Rain = 0
KTAS 040142Z 11005KT 31/11 A3002 RMK A01 T03100109  RH  029%=      5-min Rain = 0
KTAS 040143Z 11006KT 31/11 A3002 RMK A01 T03090110  RH  029%=      5-min Rain = 0
KTAS 040144Z 10005KT 31/11 A3002 RMK A01 T03090109  RH  029%=      5-min Rain = 0
KTAS 040145Z 11005KT 31/11 A3002 RMK A01 T03080110  RH  029%=      5-min Rain = 0
KTAS 040146Z 11005KT 31/11 A3002 RMK A01 T03080110  RH  030%=      5-min Rain = 0
KTAS 040147Z 11005KT 31/11 A3002 RMK A01 T03070109  RH  030%=      5-min Rain = 0
KTAS 040148Z 11005KT 31/11 A3002 RMK A01 T03060109  RH  030%=      5-min Rain = 0
KTAS 040149Z 11005KT 31/11 A3002 RMK A01 T03050110  RH  030%=      5-min Rain = 0
KTAS 040150Z 10005KT 30/11 A3002 RMK A01 T03040110  RH  030%=      5-min Rain = 0
KTAS 040151Z 10005KT 30/11 A3002 RMK A01 T03040110  RH  030%=      5-min Rain = 0
KTAS 040152Z 10004KT 30/11 A3002 RMK A01 T03030110  RH  030%=      5-min Rain = 0
KTAS 040153Z 10005KT 30/11 A3002 RMK A01 T03020111  RH  031%=      5-min Rain = 0
KTAS 040154Z 10005KT 30/11 A3002 RMK A01 T03010111  RH  031%=      5-min Rain = 0
KTAS 040155Z 10005KT 30/11 A3002 RMK A01 T03010111  RH  031%=      5-min Rain = 0
KTAS 040156Z 10005KT 30/11 A3002 RMK A01 T03000111  RH  031%=      5-min Rain = 0
KTAS 040157Z 10005KT 30/11 A3002 RMK A01 T03000111  RH  031%=      5-min Rain = 0
KTAS 040158Z 09005KT 30/11 A3002 RMK A01 T02990112  RH  031%=      5-min Rain = 0
KTAS 040159Z 10005KT 30/11 A3002 RMK A01 T02990112  RH  032%=      5-min Rain = 0
KTAS 040200Z 09005KT 30/11 A3002 RMK A01 T02980113  RH  032%=      5-min Rain = 0
KTAS 040201Z 10006KT 30/11 A3002 RMK A01 T02970112  RH  032%=      5-min Rain = 0
KTAS 040202Z 10006KT 30/11 A3002 RMK A01 T02970112  RH  032%=      5-min Rain = 0
KTAS 040203Z 10005KT 30/11 A3002 RMK A01 T02960112  RH  032%=      5-min Rain = 0
KTAS 040204Z 10005KT 30/11 A3002 RMK A01 T02960112  RH  032%=      5-min Rain = 0
KTAS 040205Z 10006KT 29/11 A3002 RMK A01 T02940113  RH  032%=      5-min Rain = 0
KTAS 040206Z 10005KT 29/11 A3002 RMK A01 T02940112  RH  033%=      5-min Rain = 0
KTAS 040207Z 09005KT 29/11 A3002 RMK A01 T02930112  RH  033%=      5-min Rain = 0
KTAS 040208Z 10005KT 29/11 A3003 RMK A01 T02930112  RH  033%=      5-min Rain = 0
KTAS 040209Z 10005KT 29/11 A3003 RMK A01 T02920113  RH  033%=      5-min Rain = 0
KTAS 040210Z 10005KT 29/11 A3003 RMK A01 T02920113  RH  033%=      5-min Rain = 0
KTAS 040211Z 10006KT 29/11 A3003 RMK A01 T02910113  RH  033%=      5-min Rain = 0
KTAS 040212Z 10006KT 29/11 A3003 RMK A01 T02910113  RH  033%=      5-min Rain = 0
KTAS 040213Z 10005KT 29/11 A3003 RMK A01 T02900113  RH  033%=      5-min Rain = 0
KTAS 040214Z 10006KT 29/11 A3003 RMK A01 T02900113  RH  033%=      5-min Rain = 0
KTAS 040215Z 10005KT 29/11 A3003 RMK A01 T02900113  RH  034%=      5-min Rain = 0
KTAS 040216Z 10005KT 29/11 A3003 RMK A01 T02890114  RH  034%=      5-min Rain = 0
KTAS 040217Z 10004KT 29/11 A3003 RMK A01 T02880114  RH  034%=      5-min Rain = 0
KTAS 040218Z 10005KT 29/12 A3003 RMK A01 T02870115  RH  034%=      5-min Rain = 0
KTAS 040219Z 10005KT 29/12 A3003 RMK A01 T02870115  RH  034%=      5-min Rain = 0
KTAS 040220Z 10005KT 29/12 A3003 RMK A01 T02860115  RH  035%=      5-min Rain = 0
KTAS 040221Z 10005KT 29/12 A3003 RMK A01 T02850115  RH  035%=      5-min Rain = 0
KTAS 040222Z 09006KT 29/12 A3003 RMK A01 T02850116  RH  035%=      5-min Rain = 0
KTAS 040223Z 09006KT 28/12 A3003 RMK A01 T02840115  RH  035%=      5-min Rain = 0
KTAS 040224Z 09006KT 28/12 A3003 RMK A01 T02830115  RH  035%=      5-min Rain = 0
KTAS 040225Z 09006KT 28/12 A3003 RMK A01 T02830115  RH  035%=      5-min Rain = 0
KTAS 040226Z 09006KT 28/12 A3003 RMK A01 T02830115  RH  035%=      5-min Rain = 0
KTAS 040227Z 09006KT 28/12 A3003 RMK A01 T02830116  RH  036%=      5-min Rain = 0
KTAS 040228Z 09006KT 28/12 A3003 RMK A01 T02820116  RH  036%=      5-min Rain = 0
KTAS 040229Z 09006KT 28/12 A3003 RMK A01 T02820117  RH  036%=      5-min Rain = 0
KTAS 040230Z 10007KT 28/12 A3003 RMK A01 T02820117  RH  036%=      5-min Rain = 0
KTAS 040231Z 10007KT 28/12 A3003 RMK A01 T02820117  RH  036%=      5-min Rain = 0
KTAS 040232Z 10006KT 28/12 A3003 RMK A01 T02820117  RH  036%=      5-min Rain = 0
KTAS 040233Z 10007KT 28/12 A3003 RMK A01 T02830117  RH  036%=      5-min Rain = 0
KTAS 040234Z 09006KT 28/12 A3003 RMK A01 T02830118  RH  036%=      5-min Rain = 0
KTAS 040235Z 09006KT 28/12 A3003 RMK A01 T02820118  RH  036%=      5-min Rain = 0
KTAS 040236Z 09008KT 28/12 A3003 RMK A01 T02820119  RH  036%=      5-min Rain = 0
KTAS 040237Z 09007KT 28/12 A3003 RMK A01 T02840119  RH  036%=      5-min Rain = 0
KTAS 040238Z 09007KT 28/12 A3003 RMK A01 T02840120  RH  036%=      5-min Rain = 0
KTAS 040239Z 09007KT 28/12 A3003 RMK A01 T02840121  RH  036%=      5-min Rain = 0
KTAS 040240Z 10008KT 29/12 A3003 RMK A01 T02860122  RH  036%=      5-min Rain = 0
KTAS 040241Z 09008KT 29/12 A3003 RMK A01 T02880122  RH  036%=      5-min Rain = 0
KTAS 040242Z 09007KT 29/12 A3003 RMK A01 T02900123  RH  035%=      5-min Rain = 0
KTAS 040243Z 09007KT 29/12 A3003 RMK A01 T02910123  RH  035%=      5-min Rain = 0
KTAS 040244Z 09006KT 29/12 A3003 RMK A01 T02920124  RH  035%=      5-min Rain = 0
KTAS 040245Z 10006KT 29/12 A3003 RMK A01 T02930124  RH  035%=      5-min Rain = 0
KTAS 040246Z 10007KT 29/13 A3004 RMK A01 T02920125  RH  036%=      5-min Rain = 0
KTAS 040247Z 10007KT 29/13 A3004 RMK A01 T02920126  RH  036%=      5-min Rain = 0
KTAS 040248Z 10007KT 29/13 A3004 RMK A01 T02940126  RH  036%=      5-min Rain = 0
KTAS 040249Z 10009KT 29/13 A3004 RMK A01 T02940127  RH  036%=      5-min Rain = 0
KTAS 040250Z 10008KT 30/13 A3004 RMK A01 T02950127  RH  036%=      5-min Rain = 0
KTAS 040251Z 10008KT 30/13 A3004 RMK A01 T02950128  RH  036%=      5-min Rain = 0
KTAS 040252Z 10007KT 30/13 A3004 RMK A01 T02960128  RH  036%=      5-min Rain = 0
KTAS 040253Z 11008KT 30/13 A3004 RMK A01 T02950129  RH  036%=      5-min Rain = 0
KTAS 040254Z 10008KT 29/13 A3004 RMK A01 T02940129  RH  036%=      5-min Rain = 0
KTAS 040255Z 10007KT 29/13 A3004 RMK A01 T02930130  RH  037%=      5-min Rain = 0
KTAS 040256Z 10008KT 29/13 A3004 RMK A01 T02920130  RH  037%=      5-min Rain = 0
KTAS 040257Z 10008KT 29/13 A3004 RMK A01 T02920130  RH  037%=      5-min Rain = 0
KTAS 040258Z 11008KT 29/13 A3004 RMK A01 T02920130  RH  037%=      5-min Rain = 0
KTAS 040259Z 10008KT 29/13 A3004 RMK A01 T02910131  RH  037%=      5-min Rain = 0
KTAS 040300Z 10008KT 29/13 A3004 RMK A01 T02910131  RH  038%=      5-min Rain = 0
KTAS 040301Z 10008KT 29/13 A3004 RMK A01 T02910132  RH  037%=      5-min Rain = 0
KTAS 040302Z 10007KT 29/13 A3004 RMK A01 T02910132  RH  038%=      5-min Rain = 0
KTAS 040303Z 10006KT 29/13 A3004 RMK A01 T02900132  RH  038%=      5-min Rain = 0
KTAS 040304Z 10008KT 29/13 A3004 RMK A01 T02890132  RH  038%=      5-min Rain = 0
KTAS 040305Z 10007KT 29/13 A3004 RMK A01 T02890132  RH  038%=      5-min Rain = 0
KTAS 040306Z 11008KT 29/13 A3004 RMK A01 T02880132  RH  038%=      5-min Rain = 0
KTAS 040307Z 10006KT 29/13 A3004 RMK A01 T02890132  RH  038%=      5-min Rain = 0
KTAS 040308Z 10007KT 29/13 A3005 RMK A01 T02880133  RH  038%=      5-min Rain = 0
KTAS 040309Z 10007KT 29/13 A3005 RMK A01 T02880133  RH  039%=      5-min Rain = 0
KTAS 040310Z 11007KT 29/13 A3005 RMK A01 T02870133  RH  039%=      5-min Rain = 0
KTAS 040311Z 11006KT 29/13 A3005 RMK A01 T02870133  RH  039%=      5-min Rain = 0
KTAS 040312Z 11007KT 29/13 A3005 RMK A01 T02870134  RH  039%=      5-min Rain = 0
KTAS 040313Z 10006KT 29/13 A3005 RMK A01 T02860134  RH  039%=      5-min Rain = 0
KTAS 040314Z 10006KT 29/13 A3005 RMK A01 T02850134  RH  039%=      5-min Rain = 0
KTAS 040315Z 11006KT 29/13 A3005 RMK A01 T02850134  RH  039%=      5-min Rain = 0
KTAS 040316Z 11006KT 28/13 A3005 RMK A01 T02840134  RH  040%=      5-min Rain = 0
KTAS 040317Z 12006KT 28/13 A3005 RMK A01 T02840134  RH  040%=      5-min Rain = 0
KTAS 040318Z 11006KT 28/13 A3005 RMK A01 T02840134  RH  040%=      5-min Rain = 0
KTAS 040319Z 11006KT 28/13 A3005 RMK A01 T02830134  RH  040%=      5-min Rain = 0
KTAS 040320Z 10007KT 28/13 A3005 RMK A01 T02830134  RH  040%=      5-min Rain = 0
KTAS 040321Z 09007KT 28/14 A3005 RMK A01 T02820135  RH  040%=      5-min Rain = 0
KTAS 040322Z 09007KT 28/14 A3006 RMK A01 T02820135  RH  040%=      5-min Rain = 0
KTAS 040323Z 10006KT 28/14 A3006 RMK A01 T02830136  RH  040%=      5-min Rain = 0
KTAS 040324Z 10007KT 28/14 A3006 RMK A01 T02820136  RH  041%=      5-min Rain = 0
KTAS 040325Z 10006KT 28/14 A3006 RMK A01 T02810137  RH  041%=      5-min Rain = 0
KTAS 040326Z 10006KT 28/14 A3006 RMK A01 T02810137  RH  041%=      5-min Rain = 0
KTAS 040327Z 10007KT 28/14 A3006 RMK A01 T02800137  RH  041%=      5-min Rain = 0
KTAS 040328Z 10007KT 28/14 A3006 RMK A01 T02800136  RH  041%=      5-min Rain = 0
KTAS 040329Z 09007KT 28/14 A3006 RMK A01 T02800136  RH  041%=      5-min Rain = 0
KTAS 040330Z 10008KT 28/14 A3006 RMK A01 T02830135  RH  040%=      5-min Rain = 0
KTAS 040331Z 10006KT 29/14 A3006 RMK A01 T02860135  RH  039%=      5-min Rain = 0
KTAS 040332Z 10006KT 29/14 A3006 RMK A01 T02860136  RH  040%=      5-min Rain = 0
KTAS 040333Z 10008KT 29/14 A3006 RMK A01 T02860137  RH  040%=      5-min Rain = 0
KTAS 040334Z 10008KT 29/14 A3006 RMK A01 T02860136  RH  040%=      5-min Rain = 0
KTAS 040335Z 11008KT 29/14 A3006 RMK A01 T02870137  RH  040%=      5-min Rain = 0
KTAS 040336Z 11007KT 29/14 A3006 RMK A01 T02860137  RH  040%=      5-min Rain = 0
KTAS 040337Z 11008KT 29/14 A3006 RMK A01 T02850136  RH  040%=      5-min Rain = 0
KTAS 040338Z 10008KT 29/14 A3006 RMK A01 T02850136  RH  040%=      5-min Rain = 0
KTAS 040339Z 10007KT 29/14 A3006 RMK A01 T02850137  RH  040%=      5-min Rain = 0
KTAS 040340Z 11007KT 28/14 A3006 RMK A01 T02840137  RH  040%=      5-min Rain = 0
KTAS 040341Z 11007KT 28/14 A3006 RMK A01 T02840137  RH  040%=      5-min Rain = 0
KTAS 040342Z 11007KT 28/14 A3006 RMK A01 T02840136  RH  040%=      5-min Rain = 0
KTAS 040343Z 11006KT 28/14 A3006 RMK A01 T02840136  RH  040%=      5-min Rain = 0
KTAS 040344Z 11007KT 28/14 A3007 RMK A01 T02840137  RH  041%=      5-min Rain = 0
KTAS 040345Z 11006KT 28/14 A3007 RMK A01 T02830137  RH  041%=      5-min Rain = 0
KTAS 040346Z 11007KT 28/14 A3007 RMK A01 T02830137  RH  041%=      5-min Rain = 0
KTAS 040347Z 11007KT 28/14 A3007 RMK A01 T02820137  RH  041%=      5-min Rain = 0
KTAS 040348Z 12006KT 28/14 A3007 RMK A01 T02820137  RH  041%=      5-min Rain = 0
KTAS 040349Z 12007KT 28/14 A3007 RMK A01 T02810137  RH  041%=      5-min Rain = 0
KTAS 040350Z 12006KT 28/14 A3006 RMK A01 T02810137  RH  041%=      5-min Rain = 0
KTAS 040351Z 12006KT 28/14 A3006 RMK A01 T02810137  RH  041%=      5-min Rain = 0
KTAS 040352Z 12006KT 28/14 A3006 RMK A01 T02790137  RH  042%=      5-min Rain = 0
KTAS 040353Z 12007KT 28/14 A3006 RMK A01 T02780138  RH  042%=      5-min Rain = 0
KTAS 040354Z 12008KT 28/14 A3006 RMK A01 T02770137  RH  042%=      5-min Rain = 0
KTAS 040355Z 12008KT 28/14 A3006 RMK A01 T02780137  RH  042%=      5-min Rain = 0
KTAS 040356Z 12008KT 28/14 A3006 RMK A01 T02790136  RH  041%=      5-min Rain = 0
KTAS 040357Z 12008KT 28/14 A3006 RMK A01 T02790136  RH  041%=      5-min Rain = 0
KTAS 040358Z 12008KT 28/14 A3006 RMK A01 T02790136  RH  041%=      5-min Rain = 0
KTAS 040359Z 12009KT 28/14 A3006 RMK A01 T02800136  RH  041%=      5-min Rain = 0
KTAS 040400Z 12008KT 28/14 A3007 RMK A01 T02810136  RH  041%=      5-min Rain = 0
KTAS 040401Z 12008KT 28/14 A3007 RMK A01 T02810136  RH  041%=      5-min Rain = 0
KTAS 040402Z 12007KT 28/14 A3007 RMK A01 T02810136  RH  041%=      5-min Rain = 0
KTAS 040403Z 12009KT 28/14 A3007 RMK A01 T02810135  RH  041%=      5-min Rain = 0
KTAS 040404Z 12007KT 28/13 A3007 RMK A01 T02830134  RH  040%=      5-min Rain = 0
KTAS 040405Z 12007KT 28/14 A3007 RMK A01 T02830136  RH  040%=      5-min Rain = 0
KTAS 040406Z 12007KT 28/14 A3007 RMK A01 T02820136  RH  041%=      5-min Rain = 0
KTAS 040407Z 12008KT 28/14 A3007 RMK A01 T02810135  RH  041%=      5-min Rain = 0
KTAS 040408Z 12007KT 28/13 A3007 RMK A01 T02810134  RH  040%=      5-min Rain = 0
KTAS 040409Z 12008KT 28/13 A3007 RMK A01 T02820134  RH  040%=      5-min Rain = 0
KTAS 040410Z 13009KT 28/13 A3007 RMK A01 T02830131  RH  039%=      5-min Rain = 0
KTAS 040411Z 12009KT 29/13 A3007 RMK A01 T02860130  RH  038%=      5-min Rain = 0
KTAS 040412Z 13009KT 29/13 A3007 RMK A01 T02870130  RH  038%=      5-min Rain = 0
KTAS 040413Z 13010KT 29/13 A3007 RMK A01 T02880128  RH  037%=      5-min Rain = 0
KTAS 040414Z 12009KT 29/13 A3007 RMK A01 T02890129  RH  037%=      5-min Rain = 0
KTAS 040415Z 13009KT 29/13 A3007 RMK A01 T02890129  RH  037%=      5-min Rain = 0
KTAS 040416Z 13007KT 29/13 A3007 RMK A01 T02880130  RH  038%=      5-min Rain = 0
KTAS 040417Z 13009KT 29/13 A3007 RMK A01 T02870129  RH  038%=      5-min Rain = 0
KTAS 040418Z 13009KT 29/13 A3007 RMK A01 T02870129  RH  038%=      5-min Rain = 0
KTAS 040419Z 13009KT 29/13 A3007 RMK A01 T02860129  RH  038%=      5-min Rain = 0
KTAS 040420Z 13010KT 29/13 A3007 RMK A01 T02860128  RH  038%=      5-min Rain = 0
KTAS 040421Z 13010KT 29/13 A3007 RMK A01 T02860128  RH  038%=      5-min Rain = 0
KTAS 040422Z 13009KT 29/13 A3007 RMK A01 T02860128  RH  038%=      5-min Rain = 0
KTAS 040423Z 13009KT 29/13 A3007 RMK A01 T02850128  RH  038%=      5-min Rain = 0
KTAS 040424Z 13008KT 29/13 A3007 RMK A01 T02850128  RH  038%=      5-min Rain = 0
KTAS 040425Z 13009KT 28/13 A3007 RMK A01 T02840127  RH  038%=      5-min Rain = 0
KTAS 040426Z 13009KT 28/13 A3007 RMK A01 T02840127  RH  038%=      5-min Rain = 0
KTAS 040427Z 13009KT 28/13 A3007 RMK A01 T02830127  RH  038%=      5-min Rain = 0
KTAS 040428Z 13009KT 28/13 A3007 RMK A01 T02830126  RH  038%=      5-min Rain = 0
KTAS 040429Z 13008KT 28/13 A3007 RMK A01 T02830126  RH  038%=      5-min Rain = 0
KTAS 040430Z 13009KT 28/13 A3007 RMK A01 T02820126  RH  038%=      5-min Rain = 0
KTAS 040431Z 13009KT 28/13 A3007 RMK A01 T02810126  RH  038%=      5-min Rain = 0
KTAS 040432Z 13009KT 28/13 A3007 RMK A01 T02810125  RH  038%=      5-min Rain = 0
KTAS 040433Z 12009KT 28/13 A3007 RMK A01 T02810125  RH  038%=      5-min Rain = 0
KTAS 040434Z 12008KT 28/13 A3007 RMK A01 T02810125  RH  038%=      5-min Rain = 0
KTAS 040435Z 12008KT 28/12 A3007 RMK A01 T02810124  RH  038%=      5-min Rain = 0
KTAS 040436Z 13009KT 28/12 A3007 RMK A01 T02810124  RH  038%=      5-min Rain = 0
KTAS 040437Z 12008KT 28/12 A3007 RMK A01 T02800124  RH  038%=      5-min Rain = 0
KTAS 040438Z 13008KT 28/12 A3007 RMK A01 T02790124  RH  038%=      5-min Rain = 0
KTAS 040439Z 13009KT 28/12 A3007 RMK A01 T02790124  RH  038%=      5-min Rain = 0
KTAS 040440Z 13009KT 28/12 A3007 RMK A01 T02790124  RH  038%=      5-min Rain = 0
KTAS 040441Z 12008KT 28/12 A3007 RMK A01 T02790124  RH  038%=      5-min Rain = 0
KTAS 040442Z 13009KT 28/12 A3007 RMK A01 T02790124  RH  038%=      5-min Rain = 0
KTAS 040443Z 13010KT 28/12 A3007 RMK A01 T02800122  RH  038%=      5-min Rain = 0
KTAS 040444Z 13010KT 28/12 A3007 RMK A01 T02810123  RH  037%=      5-min Rain = 0
KTAS 040445Z 13009KT 28/12 A3007 RMK A01 T02810123  RH  037%=      5-min Rain = 0
KTAS 040446Z 13008KT 28/12 A3007 RMK A01 T02810123  RH  038%=      5-min Rain = 0
KTAS 040447Z 13008KT 28/12 A3007 RMK A01 T02810124  RH  038%=      5-min Rain = 0
KTAS 040448Z 13008KT 28/12 A3007 RMK A01 T02800123  RH  038%=      5-min Rain = 0
KTAS 040449Z 13008KT 28/12 A3007 RMK A01 T02790123  RH  038%=      5-min Rain = 0
KTAS 040450Z 13008KT 28/12 A3007 RMK A01 T02780123  RH  038%=      5-min Rain = 0
KTAS 040451Z 13009KT 28/12 A3007 RMK A01 T02780123  RH  038%=      5-min Rain = 0
KTAS 040452Z 12009KT 28/12 A3007 RMK A01 T02770123  RH  038%=      5-min Rain = 0
KTAS 040453Z 13008KT 28/12 A3007 RMK A01 T02770123  RH  039%=      5-min Rain = 0
KTAS 040454Z 13008KT 28/12 A3007 RMK A01 T02760123  RH  039%=      5-min Rain = 0
KTAS 040455Z 13008KT 28/12 A3007 RMK A01 T02760123  RH  039%=      5-min Rain = 0
KTAS 040456Z 13008KT 28/12 A3007 RMK A01 T02750123  RH  039%=      5-min Rain = 0
KTAS 040457Z 13008KT 28/12 A3007 RMK A01 T02750123  RH  039%=      5-min Rain = 0
KTAS 040458Z 13008KT 28/12 A3007 RMK A01 T02750122  RH  039%=      5-min Rain = 0
KTAS 040459Z 13008KT 28/12 A3007 RMK A01 T02750122  RH  039%=      5-min Rain = 0

Page generated in 0.0708 seconds.